<?xml version="1.0" encoding="UTF-8" standalone="no" ?>
<gpx xmlns="http://www.topografix.com/GPX/1/1" xmlns:xsi="http://www.w3.org/2001/XMLSchema-instance" xsi:schemaLocation="http://www.topografix.com/GPX/1/1 http://www.topografix.com/GPX/1/1/gpx.xsd" version="1.1" creator="VisuGPX - https://www.visugpx.com">
  <metadata>
    <name>Landudec les 3 ormes</name>
    <desc><![CDATA[rando du 9/04/2015]]></desc>
  </metadata>
  <trk>
    <name><![CDATA[Les 3 Ormes Landudec]]></name>
    <trkseg>
      <trkpt lat="48.00138" lon="-4.33485">
        <ele>122.71</ele>
        <time>2015-02-27T13:05:02Z</time>
      </trkpt>
      <trkpt lat="48.00138" lon="-4.33485">
        <ele>122.71</ele>
        <time>2015-02-27T13:05:03Z</time>
      </trkpt>
      <trkpt lat="48.00136" lon="-4.33481">
        <ele>122.22</ele>
        <time>2015-02-27T13:05:17Z</time>
      </trkpt>
      <trkpt lat="48.00126" lon="-4.33455">
        <ele>120.78</ele>
        <time>2015-02-27T13:05:34Z</time>
      </trkpt>
      <trkpt lat="48.00112" lon="-4.33423">
        <ele>120.78</ele>
        <time>2015-02-27T13:05:52Z</time>
      </trkpt>
      <trkpt lat="48.00091" lon="-4.33404">
        <ele>120.78</ele>
        <time>2015-02-27T13:06:09Z</time>
      </trkpt>
      <trkpt lat="48.00071" lon="-4.33391">
        <ele>120.3</ele>
        <time>2015-02-27T13:06:26Z</time>
      </trkpt>
      <trkpt lat="48.00068" lon="-4.33388">
        <ele>120.3</ele>
        <time>2015-02-27T13:06:29Z</time>
      </trkpt>
      <trkpt lat="48.00066" lon="-4.33384">
        <ele>120.3</ele>
        <time>2015-02-27T13:06:44Z</time>
      </trkpt>
      <trkpt lat="48.00066" lon="-4.33379">
        <ele>120.3</ele>
        <time>2015-02-27T13:07:14Z</time>
      </trkpt>
      <trkpt lat="48.00053" lon="-4.33371">
        <ele>120.3</ele>
        <time>2015-02-27T13:07:32Z</time>
      </trkpt>
      <trkpt lat="48.00054" lon="-4.33363">
        <ele>119.82</ele>
        <time>2015-02-27T13:07:36Z</time>
      </trkpt>
      <trkpt lat="48.00059" lon="-4.33332">
        <ele>121.74</ele>
        <time>2015-02-27T13:07:52Z</time>
      </trkpt>
      <trkpt lat="48.00066" lon="-4.33295">
        <ele>122.22</ele>
        <time>2015-02-27T13:08:09Z</time>
      </trkpt>
      <trkpt lat="48.00073" lon="-4.33266">
        <ele>122.22</ele>
        <time>2015-02-27T13:08:25Z</time>
      </trkpt>
      <trkpt lat="48.0008" lon="-4.33233">
        <ele>122.71</ele>
        <time>2015-02-27T13:08:42Z</time>
      </trkpt>
      <trkpt lat="48.00088" lon="-4.33204">
        <ele>122.71</ele>
        <time>2015-02-27T13:08:56Z</time>
      </trkpt>
      <trkpt lat="48.00089" lon="-4.33199">
        <ele>122.71</ele>
        <time>2015-02-27T13:08:58Z</time>
      </trkpt>
      <trkpt lat="48.00107" lon="-4.3316">
        <ele>123.67</ele>
        <time>2015-02-27T13:09:17Z</time>
      </trkpt>
      <trkpt lat="48.00128" lon="-4.33135">
        <ele>123.67</ele>
        <time>2015-02-27T13:09:38Z</time>
      </trkpt>
      <trkpt lat="48.00152" lon="-4.33102">
        <ele>124.63</ele>
        <time>2015-02-27T13:09:57Z</time>
      </trkpt>
      <trkpt lat="48.00172" lon="-4.33078">
        <ele>124.63</ele>
        <time>2015-02-27T13:10:13Z</time>
      </trkpt>
      <trkpt lat="48.00193" lon="-4.33048">
        <ele>124.63</ele>
        <time>2015-02-27T13:10:32Z</time>
      </trkpt>
      <trkpt lat="48.00206" lon="-4.3301">
        <ele>125.11</ele>
        <time>2015-02-27T13:10:51Z</time>
      </trkpt>
      <trkpt lat="48.00213" lon="-4.32965">
        <ele>125.11</ele>
        <time>2015-02-27T13:11:11Z</time>
      </trkpt>
      <trkpt lat="48.00213" lon="-4.32914">
        <ele>124.15</ele>
        <time>2015-02-27T13:11:33Z</time>
      </trkpt>
      <trkpt lat="48.00215" lon="-4.32873">
        <ele>123.67</ele>
        <time>2015-02-27T13:11:52Z</time>
      </trkpt>
      <trkpt lat="48.00215" lon="-4.32856">
        <ele>122.71</ele>
        <time>2015-02-27T13:12:07Z</time>
      </trkpt>
      <trkpt lat="48.00214" lon="-4.32854">
        <ele>122.71</ele>
        <time>2015-02-27T13:12:20Z</time>
      </trkpt>
      <trkpt lat="48.00214" lon="-4.32854">
        <ele>122.71</ele>
        <time>2015-02-27T13:12:24Z</time>
      </trkpt>
      <trkpt lat="48.00215" lon="-4.32847">
        <ele>122.71</ele>
        <time>2015-02-27T13:12:28Z</time>
      </trkpt>
      <trkpt lat="48.00218" lon="-4.32813">
        <ele>121.26</ele>
        <time>2015-02-27T13:12:43Z</time>
      </trkpt>
      <trkpt lat="48.00219" lon="-4.32776">
        <ele>118.86</ele>
        <time>2015-02-27T13:13:00Z</time>
      </trkpt>
      <trkpt lat="48.0022" lon="-4.3273">
        <ele>116.94</ele>
        <time>2015-02-27T13:13:20Z</time>
      </trkpt>
      <trkpt lat="48.0022" lon="-4.3269">
        <ele>115.5</ele>
        <time>2015-02-27T13:13:38Z</time>
      </trkpt>
      <trkpt lat="48.00222" lon="-4.32658">
        <ele>114.53</ele>
        <time>2015-02-27T13:13:53Z</time>
      </trkpt>
      <trkpt lat="48.00222" lon="-4.32653">
        <ele>114.53</ele>
        <time>2015-02-27T13:13:55Z</time>
      </trkpt>
      <trkpt lat="48.00221" lon="-4.32645">
        <ele>114.53</ele>
        <time>2015-02-27T13:13:59Z</time>
      </trkpt>
      <trkpt lat="48.0022" lon="-4.3264">
        <ele>114.53</ele>
        <time>2015-02-27T13:14:06Z</time>
      </trkpt>
      <trkpt lat="48.00222" lon="-4.3261">
        <ele>114.05</ele>
        <time>2015-02-27T13:14:21Z</time>
      </trkpt>
      <trkpt lat="48.00223" lon="-4.32605">
        <ele>114.05</ele>
        <time>2015-02-27T13:14:24Z</time>
      </trkpt>
      <trkpt lat="48.00222" lon="-4.32595">
        <ele>113.57</ele>
        <time>2015-02-27T13:14:29Z</time>
      </trkpt>
      <trkpt lat="48.00223" lon="-4.32566">
        <ele>113.09</ele>
        <time>2015-02-27T13:14:43Z</time>
      </trkpt>
      <trkpt lat="48.00221" lon="-4.32542">
        <ele>113.09</ele>
        <time>2015-02-27T13:14:57Z</time>
      </trkpt>
      <trkpt lat="48.00214" lon="-4.32539">
        <ele>113.09</ele>
        <time>2015-02-27T13:15:09Z</time>
      </trkpt>
      <trkpt lat="48.00212" lon="-4.3254">
        <ele>113.09</ele>
        <time>2015-02-27T13:15:34Z</time>
      </trkpt>
      <trkpt lat="48.00212" lon="-4.32531">
        <ele>113.09</ele>
        <time>2015-02-27T13:15:58Z</time>
      </trkpt>
      <trkpt lat="48.00216" lon="-4.32531">
        <ele>113.09</ele>
        <time>2015-02-27T13:16:02Z</time>
      </trkpt>
      <trkpt lat="48.00221" lon="-4.32542">
        <ele>113.09</ele>
        <time>2015-02-27T13:16:20Z</time>
      </trkpt>
      <trkpt lat="48.00221" lon="-4.3254">
        <ele>113.09</ele>
        <time>2015-02-27T13:16:28Z</time>
      </trkpt>
      <trkpt lat="48.00216" lon="-4.32519">
        <ele>112.61</ele>
        <time>2015-02-27T13:16:42Z</time>
      </trkpt>
      <trkpt lat="48.00209" lon="-4.32492">
        <ele>112.13</ele>
        <time>2015-02-27T13:16:57Z</time>
      </trkpt>
      <trkpt lat="48.00208" lon="-4.3249">
        <ele>112.13</ele>
        <time>2015-02-27T13:16:58Z</time>
      </trkpt>
      <trkpt lat="48.00198" lon="-4.32461">
        <ele>111.17</ele>
        <time>2015-02-27T13:17:15Z</time>
      </trkpt>
      <trkpt lat="48.0019" lon="-4.3243">
        <ele>110.69</ele>
        <time>2015-02-27T13:17:29Z</time>
      </trkpt>
      <trkpt lat="48.00189" lon="-4.32411">
        <ele>109.73</ele>
        <time>2015-02-27T13:17:38Z</time>
      </trkpt>
      <trkpt lat="48.00186" lon="-4.32368">
        <ele>109.73</ele>
        <time>2015-02-27T13:17:55Z</time>
      </trkpt>
      <trkpt lat="48.00184" lon="-4.32353">
        <ele>109.73</ele>
        <time>2015-02-27T13:18:02Z</time>
      </trkpt>
      <trkpt lat="48.00182" lon="-4.32318">
        <ele>109.25</ele>
        <time>2015-02-27T13:18:17Z</time>
      </trkpt>
      <trkpt lat="48.00182" lon="-4.32288">
        <ele>108.77</ele>
        <time>2015-02-27T13:18:31Z</time>
      </trkpt>
      <trkpt lat="48.00186" lon="-4.32254">
        <ele>108.77</ele>
        <time>2015-02-27T13:18:48Z</time>
      </trkpt>
      <trkpt lat="48.0019" lon="-4.32233">
        <ele>108.77</ele>
        <time>2015-02-27T13:18:58Z</time>
      </trkpt>
      <trkpt lat="48.00208" lon="-4.32227">
        <ele>108.77</ele>
        <time>2015-02-27T13:19:13Z</time>
      </trkpt>
      <trkpt lat="48.00212" lon="-4.32228">
        <ele>109.73</ele>
        <time>2015-02-27T13:19:17Z</time>
      </trkpt>
      <trkpt lat="48.00223" lon="-4.32233">
        <ele>109.73</ele>
        <time>2015-02-27T13:19:31Z</time>
      </trkpt>
      <trkpt lat="48.0024" lon="-4.32244">
        <ele>109.25</ele>
        <time>2015-02-27T13:19:46Z</time>
      </trkpt>
      <trkpt lat="48.00261" lon="-4.32256">
        <ele>111.17</ele>
        <time>2015-02-27T13:20:03Z</time>
      </trkpt>
      <trkpt lat="48.00274" lon="-4.32266">
        <ele>111.65</ele>
        <time>2015-02-27T13:20:15Z</time>
      </trkpt>
      <trkpt lat="48.00296" lon="-4.32284">
        <ele>112.13</ele>
        <time>2015-02-27T13:20:31Z</time>
      </trkpt>
      <trkpt lat="48.00312" lon="-4.32296">
        <ele>112.61</ele>
        <time>2015-02-27T13:20:45Z</time>
      </trkpt>
      <trkpt lat="48.00321" lon="-4.32301">
        <ele>112.61</ele>
        <time>2015-02-27T13:20:53Z</time>
      </trkpt>
      <trkpt lat="48.00341" lon="-4.32321">
        <ele>113.57</ele>
        <time>2015-02-27T13:21:09Z</time>
      </trkpt>
      <trkpt lat="48.00357" lon="-4.32337">
        <ele>114.05</ele>
        <time>2015-02-27T13:21:25Z</time>
      </trkpt>
      <trkpt lat="48.00383" lon="-4.32354">
        <ele>114.05</ele>
        <time>2015-02-27T13:21:46Z</time>
      </trkpt>
      <trkpt lat="48.00408" lon="-4.32379">
        <ele>113.09</ele>
        <time>2015-02-27T13:22:05Z</time>
      </trkpt>
      <trkpt lat="48.00428" lon="-4.32398">
        <ele>112.61</ele>
        <time>2015-02-27T13:22:20Z</time>
      </trkpt>
      <trkpt lat="48.00443" lon="-4.32413">
        <ele>111.65</ele>
        <time>2015-02-27T13:22:33Z</time>
      </trkpt>
      <trkpt lat="48.00458" lon="-4.32426">
        <ele>111.65</ele>
        <time>2015-02-27T13:22:47Z</time>
      </trkpt>
      <trkpt lat="48.00474" lon="-4.32439">
        <ele>111.65</ele>
        <time>2015-02-27T13:23:01Z</time>
      </trkpt>
      <trkpt lat="48.00493" lon="-4.32451">
        <ele>111.17</ele>
        <time>2015-02-27T13:23:17Z</time>
      </trkpt>
      <trkpt lat="48.00497" lon="-4.32452">
        <ele>111.17</ele>
        <time>2015-02-27T13:23:22Z</time>
      </trkpt>
      <trkpt lat="48.00514" lon="-4.32465">
        <ele>111.17</ele>
        <time>2015-02-27T13:23:38Z</time>
      </trkpt>
      <trkpt lat="48.00529" lon="-4.3248">
        <ele>110.69</ele>
        <time>2015-02-27T13:23:53Z</time>
      </trkpt>
      <trkpt lat="48.00544" lon="-4.32497">
        <ele>110.69</ele>
        <time>2015-02-27T13:24:07Z</time>
      </trkpt>
      <trkpt lat="48.00573" lon="-4.3252">
        <ele>112.13</ele>
        <time>2015-02-27T13:24:24Z</time>
      </trkpt>
      <trkpt lat="48.00598" lon="-4.32541">
        <ele>113.09</ele>
        <time>2015-02-27T13:24:42Z</time>
      </trkpt>
      <trkpt lat="48.00619" lon="-4.32559">
        <ele>114.05</ele>
        <time>2015-02-27T13:25:00Z</time>
      </trkpt>
      <trkpt lat="48.0063" lon="-4.32566">
        <ele>114.05</ele>
        <time>2015-02-27T13:25:08Z</time>
      </trkpt>
      <trkpt lat="48.0064" lon="-4.3256">
        <ele>114.05</ele>
        <time>2015-02-27T13:25:17Z</time>
      </trkpt>
      <trkpt lat="48.00643" lon="-4.32554">
        <ele>114.05</ele>
        <time>2015-02-27T13:25:29Z</time>
      </trkpt>
      <trkpt lat="48.00653" lon="-4.32533">
        <ele>114.05</ele>
        <time>2015-02-27T13:25:44Z</time>
      </trkpt>
      <trkpt lat="48.00659" lon="-4.32526">
        <ele>112.61</ele>
        <time>2015-02-27T13:25:50Z</time>
      </trkpt>
      <trkpt lat="48.00672" lon="-4.32497">
        <ele>111.65</ele>
        <time>2015-02-27T13:26:06Z</time>
      </trkpt>
      <trkpt lat="48.00681" lon="-4.32463">
        <ele>109.73</ele>
        <time>2015-02-27T13:26:25Z</time>
      </trkpt>
      <trkpt lat="48.00681" lon="-4.32457">
        <ele>109.73</ele>
        <time>2015-02-27T13:26:28Z</time>
      </trkpt>
      <trkpt lat="48.00683" lon="-4.32416">
        <ele>108.29</ele>
        <time>2015-02-27T13:26:47Z</time>
      </trkpt>
      <trkpt lat="48.0068" lon="-4.32375">
        <ele>107.32</ele>
        <time>2015-02-27T13:27:04Z</time>
      </trkpt>
      <trkpt lat="48.00677" lon="-4.32328">
        <ele>106.84</ele>
        <time>2015-02-27T13:27:23Z</time>
      </trkpt>
      <trkpt lat="48.00674" lon="-4.32292">
        <ele>106.84</ele>
        <time>2015-02-27T13:27:42Z</time>
      </trkpt>
      <trkpt lat="48.00672" lon="-4.32271">
        <ele>106.84</ele>
        <time>2015-02-27T13:27:58Z</time>
      </trkpt>
      <trkpt lat="48.00669" lon="-4.32249">
        <ele>107.81</ele>
        <time>2015-02-27T13:28:14Z</time>
      </trkpt>
      <trkpt lat="48.00664" lon="-4.3221">
        <ele>107.81</ele>
        <time>2015-02-27T13:28:31Z</time>
      </trkpt>
      <trkpt lat="48.00662" lon="-4.32178">
        <ele>107.81</ele>
        <time>2015-02-27T13:28:47Z</time>
      </trkpt>
      <trkpt lat="48.00661" lon="-4.3217">
        <ele>107.81</ele>
        <time>2015-02-27T13:28:51Z</time>
      </trkpt>
      <trkpt lat="48.00654" lon="-4.32129">
        <ele>106.36</ele>
        <time>2015-02-27T13:29:10Z</time>
      </trkpt>
      <trkpt lat="48.00647" lon="-4.3209">
        <ele>105.4</ele>
        <time>2015-02-27T13:29:28Z</time>
      </trkpt>
      <trkpt lat="48.00642" lon="-4.32041">
        <ele>104.44</ele>
        <time>2015-02-27T13:29:50Z</time>
      </trkpt>
      <trkpt lat="48.00648" lon="-4.32018">
        <ele>103.96</ele>
        <time>2015-02-27T13:30:03Z</time>
      </trkpt>
      <trkpt lat="48.00651" lon="-4.32011">
        <ele>103.96</ele>
        <time>2015-02-27T13:30:07Z</time>
      </trkpt>
      <trkpt lat="48.00662" lon="-4.3197">
        <ele>103.96</ele>
        <time>2015-02-27T13:30:25Z</time>
      </trkpt>
      <trkpt lat="48.00664" lon="-4.31931">
        <ele>105.88</ele>
        <time>2015-02-27T13:30:42Z</time>
      </trkpt>
      <trkpt lat="48.00665" lon="-4.31883">
        <ele>107.32</ele>
        <time>2015-02-27T13:31:05Z</time>
      </trkpt>
      <trkpt lat="48.00665" lon="-4.31841">
        <ele>108.77</ele>
        <time>2015-02-27T13:31:25Z</time>
      </trkpt>
      <trkpt lat="48.00664" lon="-4.31805">
        <ele>110.69</ele>
        <time>2015-02-27T13:31:42Z</time>
      </trkpt>
      <trkpt lat="48.00665" lon="-4.31759">
        <ele>111.17</ele>
        <time>2015-02-27T13:32:03Z</time>
      </trkpt>
      <trkpt lat="48.00665" lon="-4.31714">
        <ele>112.13</ele>
        <time>2015-02-27T13:32:25Z</time>
      </trkpt>
      <trkpt lat="48.00666" lon="-4.31666">
        <ele>112.61</ele>
        <time>2015-02-27T13:32:47Z</time>
      </trkpt>
      <trkpt lat="48.00666" lon="-4.31621">
        <ele>112.61</ele>
        <time>2015-02-27T13:33:08Z</time>
      </trkpt>
      <trkpt lat="48.00667" lon="-4.31581">
        <ele>113.09</ele>
        <time>2015-02-27T13:33:27Z</time>
      </trkpt>
      <trkpt lat="48.00667" lon="-4.31578">
        <ele>113.09</ele>
        <time>2015-02-27T13:33:29Z</time>
      </trkpt>
      <trkpt lat="48.00671" lon="-4.31569">
        <ele>113.09</ele>
        <time>2015-02-27T13:33:34Z</time>
      </trkpt>
      <trkpt lat="48.00671" lon="-4.31554">
        <ele>111.65</ele>
        <time>2015-02-27T13:33:41Z</time>
      </trkpt>
      <trkpt lat="48.0067" lon="-4.31511">
        <ele>111.17</ele>
        <time>2015-02-27T13:34:01Z</time>
      </trkpt>
      <trkpt lat="48.00673" lon="-4.31468">
        <ele>109.73</ele>
        <time>2015-02-27T13:34:21Z</time>
      </trkpt>
      <trkpt lat="48.00675" lon="-4.31434">
        <ele>109.25</ele>
        <time>2015-02-27T13:34:36Z</time>
      </trkpt>
      <trkpt lat="48.00678" lon="-4.31399">
        <ele>108.77</ele>
        <time>2015-02-27T13:34:52Z</time>
      </trkpt>
      <trkpt lat="48.0068" lon="-4.3137">
        <ele>107.81</ele>
        <time>2015-02-27T13:35:07Z</time>
      </trkpt>
      <trkpt lat="48.00686" lon="-4.31334">
        <ele>107.32</ele>
        <time>2015-02-27T13:35:26Z</time>
      </trkpt>
      <trkpt lat="48.0069" lon="-4.31298">
        <ele>106.84</ele>
        <time>2015-02-27T13:35:43Z</time>
      </trkpt>
      <trkpt lat="48.00695" lon="-4.31264">
        <ele>106.84</ele>
        <time>2015-02-27T13:36:00Z</time>
      </trkpt>
      <trkpt lat="48.00699" lon="-4.31238">
        <ele>106.84</ele>
        <time>2015-02-27T13:36:13Z</time>
      </trkpt>
      <trkpt lat="48.00705" lon="-4.3121">
        <ele>106.84</ele>
        <time>2015-02-27T13:36:28Z</time>
      </trkpt>
      <trkpt lat="48.00708" lon="-4.31176">
        <ele>106.36</ele>
        <time>2015-02-27T13:36:45Z</time>
      </trkpt>
      <trkpt lat="48.00713" lon="-4.31138">
        <ele>106.36</ele>
        <time>2015-02-27T13:37:03Z</time>
      </trkpt>
      <trkpt lat="48.00715" lon="-4.31123">
        <ele>106.36</ele>
        <time>2015-02-27T13:37:10Z</time>
      </trkpt>
      <trkpt lat="48.00717" lon="-4.31107">
        <ele>106.36</ele>
        <time>2015-02-27T13:37:20Z</time>
      </trkpt>
      <trkpt lat="48.00719" lon="-4.31103">
        <ele>106.36</ele>
        <time>2015-02-27T13:37:26Z</time>
      </trkpt>
      <trkpt lat="48.00736" lon="-4.31098">
        <ele>106.36</ele>
        <time>2015-02-27T13:37:42Z</time>
      </trkpt>
      <trkpt lat="48.00755" lon="-4.31091">
        <ele>108.77</ele>
        <time>2015-02-27T13:37:58Z</time>
      </trkpt>
      <trkpt lat="48.0077" lon="-4.31087">
        <ele>110.69</ele>
        <time>2015-02-27T13:38:13Z</time>
      </trkpt>
      <trkpt lat="48.00784" lon="-4.31085">
        <ele>112.61</ele>
        <time>2015-02-27T13:38:27Z</time>
      </trkpt>
      <trkpt lat="48.00805" lon="-4.31078">
        <ele>114.05</ele>
        <time>2015-02-27T13:38:41Z</time>
      </trkpt>
      <trkpt lat="48.00828" lon="-4.31071">
        <ele>114.53</ele>
        <time>2015-02-27T13:38:58Z</time>
      </trkpt>
      <trkpt lat="48.00849" lon="-4.3107">
        <ele>116.46</ele>
        <time>2015-02-27T13:39:17Z</time>
      </trkpt>
      <trkpt lat="48.00867" lon="-4.31073">
        <ele>117.42</ele>
        <time>2015-02-27T13:39:31Z</time>
      </trkpt>
      <trkpt lat="48.00886" lon="-4.31078">
        <ele>117.42</ele>
        <time>2015-02-27T13:39:47Z</time>
      </trkpt>
      <trkpt lat="48.00909" lon="-4.31071">
        <ele>117.42</ele>
        <time>2015-02-27T13:40:03Z</time>
      </trkpt>
      <trkpt lat="48.00932" lon="-4.31062">
        <ele>117.42</ele>
        <time>2015-02-27T13:40:20Z</time>
      </trkpt>
      <trkpt lat="48.00936" lon="-4.31061">
        <ele>115.98</ele>
        <time>2015-02-27T13:40:23Z</time>
      </trkpt>
      <trkpt lat="48.00941" lon="-4.31061">
        <ele>115.98</ele>
        <time>2015-02-27T13:40:27Z</time>
      </trkpt>
      <trkpt lat="48.00971" lon="-4.31068">
        <ele>115.5</ele>
        <time>2015-02-27T13:40:47Z</time>
      </trkpt>
      <trkpt lat="48.00993" lon="-4.31066">
        <ele>115.01</ele>
        <time>2015-02-27T13:41:03Z</time>
      </trkpt>
      <trkpt lat="48.01015" lon="-4.3106">
        <ele>115.01</ele>
        <time>2015-02-27T13:41:20Z</time>
      </trkpt>
      <trkpt lat="48.01026" lon="-4.31057">
        <ele>115.01</ele>
        <time>2015-02-27T13:41:33Z</time>
      </trkpt>
      <trkpt lat="48.01026" lon="-4.31051">
        <ele>115.01</ele>
        <time>2015-02-27T13:41:37Z</time>
      </trkpt>
      <trkpt lat="48.01025" lon="-4.31045">
        <ele>115.01</ele>
        <time>2015-02-27T13:41:40Z</time>
      </trkpt>
      <trkpt lat="48.01017" lon="-4.31013">
        <ele>114.53</ele>
        <time>2015-02-27T13:41:56Z</time>
      </trkpt>
      <trkpt lat="48.01009" lon="-4.30976">
        <ele>113.57</ele>
        <time>2015-02-27T13:42:15Z</time>
      </trkpt>
      <trkpt lat="48.00997" lon="-4.3094">
        <ele>112.61</ele>
        <time>2015-02-27T13:42:34Z</time>
      </trkpt>
      <trkpt lat="48.00987" lon="-4.30904">
        <ele>112.13</ele>
        <time>2015-02-27T13:42:55Z</time>
      </trkpt>
      <trkpt lat="48.00983" lon="-4.30886">
        <ele>112.13</ele>
        <time>2015-02-27T13:43:05Z</time>
      </trkpt>
      <trkpt lat="48.00981" lon="-4.30873">
        <ele>112.13</ele>
        <time>2015-02-27T13:43:12Z</time>
      </trkpt>
      <trkpt lat="48.00976" lon="-4.30843">
        <ele>111.65</ele>
        <time>2015-02-27T13:43:28Z</time>
      </trkpt>
      <trkpt lat="48.00974" lon="-4.30833">
        <ele>110.69</ele>
        <time>2015-02-27T13:43:33Z</time>
      </trkpt>
      <trkpt lat="48.00968" lon="-4.30794">
        <ele>110.21</ele>
        <time>2015-02-27T13:43:51Z</time>
      </trkpt>
      <trkpt lat="48.00965" lon="-4.30759">
        <ele>108.29</ele>
        <time>2015-02-27T13:44:07Z</time>
      </trkpt>
      <trkpt lat="48.00959" lon="-4.30725">
        <ele>107.81</ele>
        <time>2015-02-27T13:44:24Z</time>
      </trkpt>
      <trkpt lat="48.0095" lon="-4.30686">
        <ele>105.4</ele>
        <time>2015-02-27T13:44:43Z</time>
      </trkpt>
      <trkpt lat="48.0094" lon="-4.30654">
        <ele>103.96</ele>
        <time>2015-02-27T13:44:59Z</time>
      </trkpt>
      <trkpt lat="48.00934" lon="-4.30617">
        <ele>102.52</ele>
        <time>2015-02-27T13:45:18Z</time>
      </trkpt>
      <trkpt lat="48.00939" lon="-4.30606">
        <ele>101.08</ele>
        <time>2015-02-27T13:45:33Z</time>
      </trkpt>
      <trkpt lat="48.00943" lon="-4.306">
        <ele>101.08</ele>
        <time>2015-02-27T13:45:39Z</time>
      </trkpt>
      <trkpt lat="48.00954" lon="-4.3058">
        <ele>100.11</ele>
        <time>2015-02-27T13:45:55Z</time>
      </trkpt>
      <trkpt lat="48.00966" lon="-4.30558">
        <ele>99.15</ele>
        <time>2015-02-27T13:46:11Z</time>
      </trkpt>
      <trkpt lat="48.00985" lon="-4.30526">
        <ele>97.71</ele>
        <time>2015-02-27T13:46:27Z</time>
      </trkpt>
      <trkpt lat="48.01002" lon="-4.30508">
        <ele>97.23</ele>
        <time>2015-02-27T13:46:42Z</time>
      </trkpt>
      <trkpt lat="48.01019" lon="-4.30497">
        <ele>95.79</ele>
        <time>2015-02-27T13:46:57Z</time>
      </trkpt>
      <trkpt lat="48.01036" lon="-4.30492">
        <ele>94.35</ele>
        <time>2015-02-27T13:47:14Z</time>
      </trkpt>
      <trkpt lat="48.01054" lon="-4.30484">
        <ele>91.94</ele>
        <time>2015-02-27T13:47:30Z</time>
      </trkpt>
      <trkpt lat="48.01068" lon="-4.30478">
        <ele>90.98</ele>
        <time>2015-02-27T13:47:45Z</time>
      </trkpt>
      <trkpt lat="48.01072" lon="-4.30476">
        <ele>90.98</ele>
        <time>2015-02-27T13:48:14Z</time>
      </trkpt>
      <trkpt lat="48.01074" lon="-4.30476">
        <ele>90.98</ele>
        <time>2015-02-27T13:48:20Z</time>
      </trkpt>
      <trkpt lat="48.01085" lon="-4.30484">
        <ele>90.98</ele>
        <time>2015-02-27T13:48:32Z</time>
      </trkpt>
      <trkpt lat="48.01108" lon="-4.30471">
        <ele>90.02</ele>
        <time>2015-02-27T13:48:50Z</time>
      </trkpt>
      <trkpt lat="48.01123" lon="-4.30464">
        <ele>88.1</ele>
        <time>2015-02-27T13:49:01Z</time>
      </trkpt>
      <trkpt lat="48.01138" lon="-4.30458">
        <ele>89.06</ele>
        <time>2015-02-27T13:49:14Z</time>
      </trkpt>
      <trkpt lat="48.01163" lon="-4.30447">
        <ele>87.14</ele>
        <time>2015-02-27T13:49:31Z</time>
      </trkpt>
      <trkpt lat="48.01187" lon="-4.30444">
        <ele>87.14</ele>
        <time>2015-02-27T13:49:48Z</time>
      </trkpt>
      <trkpt lat="48.01209" lon="-4.30435">
        <ele>86.66</ele>
        <time>2015-02-27T13:50:02Z</time>
      </trkpt>
      <trkpt lat="48.01223" lon="-4.30429">
        <ele>84.25</ele>
        <time>2015-02-27T13:50:15Z</time>
      </trkpt>
      <trkpt lat="48.01235" lon="-4.3042">
        <ele>81.37</ele>
        <time>2015-02-27T13:50:26Z</time>
      </trkpt>
      <trkpt lat="48.01243" lon="-4.30412">
        <ele>81.37</ele>
        <time>2015-02-27T13:50:34Z</time>
      </trkpt>
      <trkpt lat="48.01247" lon="-4.3041">
        <ele>81.37</ele>
        <time>2015-02-27T13:50:37Z</time>
      </trkpt>
      <trkpt lat="48.01264" lon="-4.30396">
        <ele>79.93</ele>
        <time>2015-02-27T13:50:48Z</time>
      </trkpt>
      <trkpt lat="48.01275" lon="-4.30391">
        <ele>78.97</ele>
        <time>2015-02-27T13:50:55Z</time>
      </trkpt>
      <trkpt lat="48.01279" lon="-4.30391">
        <ele>78.97</ele>
        <time>2015-02-27T13:50:58Z</time>
      </trkpt>
      <trkpt lat="48.01283" lon="-4.30388">
        <ele>78.48</ele>
        <time>2015-02-27T13:51:02Z</time>
      </trkpt>
      <trkpt lat="48.01301" lon="-4.30369">
        <ele>76.08</ele>
        <time>2015-02-27T13:51:19Z</time>
      </trkpt>
      <trkpt lat="48.0131" lon="-4.30369">
        <ele>75.6</ele>
        <time>2015-02-27T13:51:36Z</time>
      </trkpt>
      <trkpt lat="48.01316" lon="-4.30372">
        <ele>75.6</ele>
        <time>2015-02-27T13:51:40Z</time>
      </trkpt>
      <trkpt lat="48.01346" lon="-4.3039">
        <ele>74.16</ele>
        <time>2015-02-27T13:52:00Z</time>
      </trkpt>
      <trkpt lat="48.01367" lon="-4.30403">
        <ele>72.72</ele>
        <time>2015-02-27T13:52:15Z</time>
      </trkpt>
      <trkpt lat="48.01369" lon="-4.30405">
        <ele>72.24</ele>
        <time>2015-02-27T13:52:17Z</time>
      </trkpt>
      <trkpt lat="48.01376" lon="-4.30408">
        <ele>71.27</ele>
        <time>2015-02-27T13:52:22Z</time>
      </trkpt>
      <trkpt lat="48.01391" lon="-4.30415">
        <ele>70.79</ele>
        <time>2015-02-27T13:52:33Z</time>
      </trkpt>
      <trkpt lat="48.01412" lon="-4.30426">
        <ele>69.35</ele>
        <time>2015-02-27T13:52:49Z</time>
      </trkpt>
      <trkpt lat="48.01421" lon="-4.30431">
        <ele>68.87</ele>
        <time>2015-02-27T13:53:03Z</time>
      </trkpt>
      <trkpt lat="48.01428" lon="-4.30424">
        <ele>68.87</ele>
        <time>2015-02-27T13:53:29Z</time>
      </trkpt>
      <trkpt lat="48.01424" lon="-4.30428">
        <ele>68.87</ele>
        <time>2015-02-27T13:54:13Z</time>
      </trkpt>
      <trkpt lat="48.01424" lon="-4.30428">
        <ele>68.87</ele>
        <time>2015-02-27T13:54:46Z</time>
      </trkpt>
      <trkpt lat="48.01424" lon="-4.3043">
        <ele>68.87</ele>
        <time>2015-02-27T13:54:48Z</time>
      </trkpt>
      <trkpt lat="48.01431" lon="-4.30441">
        <ele>68.39</ele>
        <time>2015-02-27T13:54:57Z</time>
      </trkpt>
      <trkpt lat="48.01437" lon="-4.30449">
        <ele>68.39</ele>
        <time>2015-02-27T13:55:10Z</time>
      </trkpt>
      <trkpt lat="48.01455" lon="-4.30462">
        <ele>66.47</ele>
        <time>2015-02-27T13:55:25Z</time>
      </trkpt>
      <trkpt lat="48.01468" lon="-4.30487">
        <ele>66.47</ele>
        <time>2015-02-27T13:55:41Z</time>
      </trkpt>
      <trkpt lat="48.01472" lon="-4.30502">
        <ele>66.47</ele>
        <time>2015-02-27T13:55:50Z</time>
      </trkpt>
      <trkpt lat="48.01473" lon="-4.30509">
        <ele>65.99</ele>
        <time>2015-02-27T13:55:54Z</time>
      </trkpt>
      <trkpt lat="48.01478" lon="-4.3054">
        <ele>66.95</ele>
        <time>2015-02-27T13:56:09Z</time>
      </trkpt>
      <trkpt lat="48.0148" lon="-4.30555">
        <ele>66.95</ele>
        <time>2015-02-27T13:56:16Z</time>
      </trkpt>
      <trkpt lat="48.01483" lon="-4.30565">
        <ele>66.95</ele>
        <time>2015-02-27T13:56:23Z</time>
      </trkpt>
      <trkpt lat="48.01484" lon="-4.30571">
        <ele>66.95</ele>
        <time>2015-02-27T13:56:27Z</time>
      </trkpt>
      <trkpt lat="48.01485" lon="-4.30577">
        <ele>66.95</ele>
        <time>2015-02-27T13:56:30Z</time>
      </trkpt>
      <trkpt lat="48.01487" lon="-4.30607">
        <ele>66.95</ele>
        <time>2015-02-27T13:56:45Z</time>
      </trkpt>
      <trkpt lat="48.01496" lon="-4.30632">
        <ele>66.95</ele>
        <time>2015-02-27T13:56:58Z</time>
      </trkpt>
      <trkpt lat="48.01506" lon="-4.30653">
        <ele>66.95</ele>
        <time>2015-02-27T13:57:12Z</time>
      </trkpt>
      <trkpt lat="48.01518" lon="-4.30676">
        <ele>66.95</ele>
        <time>2015-02-27T13:57:27Z</time>
      </trkpt>
      <trkpt lat="48.01521" lon="-4.3068">
        <ele>66.95</ele>
        <time>2015-02-27T13:57:30Z</time>
      </trkpt>
      <trkpt lat="48.01532" lon="-4.30703">
        <ele>66.47</ele>
        <time>2015-02-27T13:57:41Z</time>
      </trkpt>
      <trkpt lat="48.0154" lon="-4.30729">
        <ele>66.95</ele>
        <time>2015-02-27T13:57:55Z</time>
      </trkpt>
      <trkpt lat="48.0155" lon="-4.30741">
        <ele>66.95</ele>
        <time>2015-02-27T13:58:02Z</time>
      </trkpt>
      <trkpt lat="48.01563" lon="-4.30761">
        <ele>67.43</ele>
        <time>2015-02-27T13:58:17Z</time>
      </trkpt>
      <trkpt lat="48.01575" lon="-4.30779">
        <ele>67.43</ele>
        <time>2015-02-27T13:58:30Z</time>
      </trkpt>
      <trkpt lat="48.01581" lon="-4.30795">
        <ele>68.87</ele>
        <time>2015-02-27T13:58:41Z</time>
      </trkpt>
      <trkpt lat="48.01586" lon="-4.30809">
        <ele>70.31</ele>
        <time>2015-02-27T13:58:55Z</time>
      </trkpt>
      <trkpt lat="48.01588" lon="-4.30812">
        <ele>70.31</ele>
        <time>2015-02-27T13:58:57Z</time>
      </trkpt>
      <trkpt lat="48.01602" lon="-4.30838">
        <ele>72.72</ele>
        <time>2015-02-27T13:59:13Z</time>
      </trkpt>
      <trkpt lat="48.01606" lon="-4.3085">
        <ele>73.68</ele>
        <time>2015-02-27T13:59:21Z</time>
      </trkpt>
      <trkpt lat="48.01606" lon="-4.30855">
        <ele>74.64</ele>
        <time>2015-02-27T13:59:24Z</time>
      </trkpt>
      <trkpt lat="48.01616" lon="-4.30872">
        <ele>75.6</ele>
        <time>2015-02-27T13:59:39Z</time>
      </trkpt>
      <trkpt lat="48.01616" lon="-4.30874">
        <ele>75.6</ele>
        <time>2015-02-27T13:59:41Z</time>
      </trkpt>
      <trkpt lat="48.01618" lon="-4.30877">
        <ele>75.6</ele>
        <time>2015-02-27T13:59:44Z</time>
      </trkpt>
      <trkpt lat="48.01622" lon="-4.30882">
        <ele>74.16</ele>
        <time>2015-02-27T13:59:48Z</time>
      </trkpt>
      <trkpt lat="48.01631" lon="-4.30886">
        <ele>71.27</ele>
        <time>2015-02-27T13:59:59Z</time>
      </trkpt>
      <trkpt lat="48.01644" lon="-4.30889">
        <ele>67.91</ele>
        <time>2015-02-27T14:00:12Z</time>
      </trkpt>
      <trkpt lat="48.01644" lon="-4.30886">
        <ele>66.47</ele>
        <time>2015-02-27T14:00:29Z</time>
      </trkpt>
      <trkpt lat="48.01641" lon="-4.30882">
        <ele>65.51</ele>
        <time>2015-02-27T14:00:47Z</time>
      </trkpt>
      <trkpt lat="48.01642" lon="-4.30879">
        <ele>65.03</ele>
        <time>2015-02-27T14:01:02Z</time>
      </trkpt>
      <trkpt lat="48.01649" lon="-4.30883">
        <ele>65.03</ele>
        <time>2015-02-27T14:01:28Z</time>
      </trkpt>
      <trkpt lat="48.01652" lon="-4.30886">
        <ele>66.47</ele>
        <time>2015-02-27T14:01:35Z</time>
      </trkpt>
      <trkpt lat="48.01661" lon="-4.30893">
        <ele>66.95</ele>
        <time>2015-02-27T14:01:47Z</time>
      </trkpt>
      <trkpt lat="48.0167" lon="-4.30893">
        <ele>65.51</ele>
        <time>2015-02-27T14:01:57Z</time>
      </trkpt>
      <trkpt lat="48.01681" lon="-4.30898">
        <ele>64.55</ele>
        <time>2015-02-27T14:02:11Z</time>
      </trkpt>
      <trkpt lat="48.0169" lon="-4.30896">
        <ele>63.58</ele>
        <time>2015-02-27T14:02:21Z</time>
      </trkpt>
      <trkpt lat="48.01703" lon="-4.30899">
        <ele>61.66</ele>
        <time>2015-02-27T14:02:32Z</time>
      </trkpt>
      <trkpt lat="48.01721" lon="-4.3091">
        <ele>60.7</ele>
        <time>2015-02-27T14:02:48Z</time>
      </trkpt>
      <trkpt lat="48.01738" lon="-4.30929">
        <ele>60.7</ele>
        <time>2015-02-27T14:03:04Z</time>
      </trkpt>
      <trkpt lat="48.01746" lon="-4.30941">
        <ele>62.14</ele>
        <time>2015-02-27T14:03:13Z</time>
      </trkpt>
      <trkpt lat="48.01763" lon="-4.30969">
        <ele>63.1</ele>
        <time>2015-02-27T14:03:30Z</time>
      </trkpt>
      <trkpt lat="48.01774" lon="-4.30989">
        <ele>63.58</ele>
        <time>2015-02-27T14:03:44Z</time>
      </trkpt>
      <trkpt lat="48.01781" lon="-4.30993">
        <ele>61.66</ele>
        <time>2015-02-27T14:03:48Z</time>
      </trkpt>
      <trkpt lat="48.01788" lon="-4.31">
        <ele>61.18</ele>
        <time>2015-02-27T14:03:53Z</time>
      </trkpt>
      <trkpt lat="48.01797" lon="-4.31008">
        <ele>60.7</ele>
        <time>2015-02-27T14:04:01Z</time>
      </trkpt>
      <trkpt lat="48.01803" lon="-4.31019">
        <ele>60.22</ele>
        <time>2015-02-27T14:04:07Z</time>
      </trkpt>
      <trkpt lat="48.01819" lon="-4.31045">
        <ele>59.26</ele>
        <time>2015-02-27T14:04:22Z</time>
      </trkpt>
      <trkpt lat="48.01822" lon="-4.31052">
        <ele>59.26</ele>
        <time>2015-02-27T14:04:28Z</time>
      </trkpt>
      <trkpt lat="48.01825" lon="-4.31078">
        <ele>59.26</ele>
        <time>2015-02-27T14:04:43Z</time>
      </trkpt>
      <trkpt lat="48.01831" lon="-4.311">
        <ele>59.26</ele>
        <time>2015-02-27T14:04:56Z</time>
      </trkpt>
      <trkpt lat="48.01833" lon="-4.31107">
        <ele>59.26</ele>
        <time>2015-02-27T14:05:00Z</time>
      </trkpt>
      <trkpt lat="48.01834" lon="-4.31112">
        <ele>59.26</ele>
        <time>2015-02-27T14:05:03Z</time>
      </trkpt>
      <trkpt lat="48.01837" lon="-4.3112">
        <ele>60.7</ele>
        <time>2015-02-27T14:05:07Z</time>
      </trkpt>
      <trkpt lat="48.01842" lon="-4.31141">
        <ele>60.22</ele>
        <time>2015-02-27T14:05:22Z</time>
      </trkpt>
      <trkpt lat="48.0185" lon="-4.31162">
        <ele>60.22</ele>
        <time>2015-02-27T14:05:36Z</time>
      </trkpt>
      <trkpt lat="48.01858" lon="-4.3118">
        <ele>60.22</ele>
        <time>2015-02-27T14:05:49Z</time>
      </trkpt>
      <trkpt lat="48.01868" lon="-4.31196">
        <ele>61.66</ele>
        <time>2015-02-27T14:06:04Z</time>
      </trkpt>
      <trkpt lat="48.01872" lon="-4.31202">
        <ele>61.66</ele>
        <time>2015-02-27T14:06:09Z</time>
      </trkpt>
      <trkpt lat="48.01882" lon="-4.31215">
        <ele>61.66</ele>
        <time>2015-02-27T14:06:18Z</time>
      </trkpt>
      <trkpt lat="48.01897" lon="-4.31234">
        <ele>60.22</ele>
        <time>2015-02-27T14:06:34Z</time>
      </trkpt>
      <trkpt lat="48.019" lon="-4.31238">
        <ele>60.22</ele>
        <time>2015-02-27T14:06:37Z</time>
      </trkpt>
      <trkpt lat="48.01908" lon="-4.31246">
        <ele>60.22</ele>
        <time>2015-02-27T14:06:43Z</time>
      </trkpt>
      <trkpt lat="48.01918" lon="-4.31257">
        <ele>60.22</ele>
        <time>2015-02-27T14:06:54Z</time>
      </trkpt>
      <trkpt lat="48.01927" lon="-4.31265">
        <ele>60.22</ele>
        <time>2015-02-27T14:07:01Z</time>
      </trkpt>
      <trkpt lat="48.01938" lon="-4.31276">
        <ele>59.74</ele>
        <time>2015-02-27T14:07:11Z</time>
      </trkpt>
      <trkpt lat="48.01948" lon="-4.31282">
        <ele>58.78</ele>
        <time>2015-02-27T14:07:20Z</time>
      </trkpt>
      <trkpt lat="48.01966" lon="-4.31294">
        <ele>58.3</ele>
        <time>2015-02-27T14:07:35Z</time>
      </trkpt>
      <trkpt lat="48.01967" lon="-4.31295">
        <ele>58.3</ele>
        <time>2015-02-27T14:07:36Z</time>
      </trkpt>
      <trkpt lat="48.0197" lon="-4.31298">
        <ele>58.3</ele>
        <time>2015-02-27T14:07:39Z</time>
      </trkpt>
      <trkpt lat="48.01985" lon="-4.31323">
        <ele>58.3</ele>
        <time>2015-02-27T14:07:54Z</time>
      </trkpt>
      <trkpt lat="48.01999" lon="-4.31342">
        <ele>58.3</ele>
        <time>2015-02-27T14:08:09Z</time>
      </trkpt>
      <trkpt lat="48.02014" lon="-4.3136">
        <ele>58.3</ele>
        <time>2015-02-27T14:08:23Z</time>
      </trkpt>
      <trkpt lat="48.02017" lon="-4.31365">
        <ele>58.3</ele>
        <time>2015-02-27T14:08:26Z</time>
      </trkpt>
      <trkpt lat="48.02032" lon="-4.31393">
        <ele>60.7</ele>
        <time>2015-02-27T14:08:43Z</time>
      </trkpt>
      <trkpt lat="48.02038" lon="-4.31414">
        <ele>62.62</ele>
        <time>2015-02-27T14:08:56Z</time>
      </trkpt>
      <trkpt lat="48.02039" lon="-4.31425">
        <ele>63.58</ele>
        <time>2015-02-27T14:09:02Z</time>
      </trkpt>
      <trkpt lat="48.0204" lon="-4.31434">
        <ele>64.55</ele>
        <time>2015-02-27T14:09:08Z</time>
      </trkpt>
      <trkpt lat="48.02041" lon="-4.31457">
        <ele>66.95</ele>
        <time>2015-02-27T14:09:22Z</time>
      </trkpt>
      <trkpt lat="48.02039" lon="-4.31479">
        <ele>69.35</ele>
        <time>2015-02-27T14:09:34Z</time>
      </trkpt>
      <trkpt lat="48.02036" lon="-4.31498">
        <ele>70.79</ele>
        <time>2015-02-27T14:09:47Z</time>
      </trkpt>
      <trkpt lat="48.02031" lon="-4.31525">
        <ele>73.68</ele>
        <time>2015-02-27T14:10:04Z</time>
      </trkpt>
      <trkpt lat="48.02029" lon="-4.31533">
        <ele>74.64</ele>
        <time>2015-02-27T14:10:09Z</time>
      </trkpt>
      <trkpt lat="48.02027" lon="-4.31538">
        <ele>75.12</ele>
        <time>2015-02-27T14:10:12Z</time>
      </trkpt>
      <trkpt lat="48.0202" lon="-4.31557">
        <ele>76.56</ele>
        <time>2015-02-27T14:10:26Z</time>
      </trkpt>
      <trkpt lat="48.02018" lon="-4.31563">
        <ele>78</ele>
        <time>2015-02-27T14:10:31Z</time>
      </trkpt>
      <trkpt lat="48.02015" lon="-4.31586">
        <ele>79.93</ele>
        <time>2015-02-27T14:10:46Z</time>
      </trkpt>
      <trkpt lat="48.02005" lon="-4.31604">
        <ele>82.81</ele>
        <time>2015-02-27T14:11:02Z</time>
      </trkpt>
      <trkpt lat="48.01998" lon="-4.31616">
        <ele>84.73</ele>
        <time>2015-02-27T14:11:12Z</time>
      </trkpt>
      <trkpt lat="48.01991" lon="-4.31637">
        <ele>86.18</ele>
        <time>2015-02-27T14:11:28Z</time>
      </trkpt>
      <trkpt lat="48.01983" lon="-4.31661">
        <ele>88.1</ele>
        <time>2015-02-27T14:11:44Z</time>
      </trkpt>
      <trkpt lat="48.01979" lon="-4.31677">
        <ele>88.1</ele>
        <time>2015-02-27T14:11:59Z</time>
      </trkpt>
      <trkpt lat="48.01979" lon="-4.31678">
        <ele>88.1</ele>
        <time>2015-02-27T14:12:13Z</time>
      </trkpt>
      <trkpt lat="48.01974" lon="-4.31689">
        <ele>90.02</ele>
        <time>2015-02-27T14:12:26Z</time>
      </trkpt>
      <trkpt lat="48.01971" lon="-4.31701">
        <ele>92.42</ele>
        <time>2015-02-27T14:12:37Z</time>
      </trkpt>
      <trkpt lat="48.01973" lon="-4.31724">
        <ele>92.42</ele>
        <time>2015-02-27T14:12:47Z</time>
      </trkpt>
      <trkpt lat="48.01974" lon="-4.31742">
        <ele>92.9</ele>
        <time>2015-02-27T14:12:58Z</time>
      </trkpt>
      <trkpt lat="48.01974" lon="-4.31749">
        <ele>92.9</ele>
        <time>2015-02-27T14:13:02Z</time>
      </trkpt>
      <trkpt lat="48.01976" lon="-4.31775">
        <ele>93.39</ele>
        <time>2015-02-27T14:13:19Z</time>
      </trkpt>
      <trkpt lat="48.01983" lon="-4.31794">
        <ele>91.46</ele>
        <time>2015-02-27T14:13:35Z</time>
      </trkpt>
      <trkpt lat="48.01988" lon="-4.31796">
        <ele>90.02</ele>
        <time>2015-02-27T14:13:40Z</time>
      </trkpt>
      <trkpt lat="48.02001" lon="-4.318">
        <ele>85.69</ele>
        <time>2015-02-27T14:13:52Z</time>
      </trkpt>
      <trkpt lat="48.0201" lon="-4.31805">
        <ele>82.81</ele>
        <time>2015-02-27T14:14:03Z</time>
      </trkpt>
      <trkpt lat="48.02013" lon="-4.31806">
        <ele>81.85</ele>
        <time>2015-02-27T14:14:06Z</time>
      </trkpt>
      <trkpt lat="48.02025" lon="-4.31816">
        <ele>78</ele>
        <time>2015-02-27T14:14:16Z</time>
      </trkpt>
      <trkpt lat="48.02035" lon="-4.31825">
        <ele>75.12</ele>
        <time>2015-02-27T14:14:26Z</time>
      </trkpt>
      <trkpt lat="48.02039" lon="-4.31826">
        <ele>73.68</ele>
        <time>2015-02-27T14:14:29Z</time>
      </trkpt>
      <trkpt lat="48.02057" lon="-4.31832">
        <ele>70.31</ele>
        <time>2015-02-27T14:14:42Z</time>
      </trkpt>
      <trkpt lat="48.02058" lon="-4.31832">
        <ele>70.31</ele>
        <time>2015-02-27T14:14:43Z</time>
      </trkpt>
      <trkpt lat="48.02065" lon="-4.31833">
        <ele>68.87</ele>
        <time>2015-02-27T14:14:49Z</time>
      </trkpt>
      <trkpt lat="48.02068" lon="-4.31839">
        <ele>68.39</ele>
        <time>2015-02-27T14:14:54Z</time>
      </trkpt>
      <trkpt lat="48.02068" lon="-4.31851">
        <ele>69.83</ele>
        <time>2015-02-27T14:15:01Z</time>
      </trkpt>
      <trkpt lat="48.02071" lon="-4.31883">
        <ele>68.87</ele>
        <time>2015-02-27T14:15:18Z</time>
      </trkpt>
      <trkpt lat="48.02076" lon="-4.31917">
        <ele>68.39</ele>
        <time>2015-02-27T14:15:36Z</time>
      </trkpt>
      <trkpt lat="48.02082" lon="-4.31952">
        <ele>68.39</ele>
        <time>2015-02-27T14:15:52Z</time>
      </trkpt>
      <trkpt lat="48.02086" lon="-4.31974">
        <ele>67.91</ele>
        <time>2015-02-27T14:16:05Z</time>
      </trkpt>
      <trkpt lat="48.02091" lon="-4.31997">
        <ele>67.43</ele>
        <time>2015-02-27T14:16:18Z</time>
      </trkpt>
      <trkpt lat="48.02092" lon="-4.32">
        <ele>67.43</ele>
        <time>2015-02-27T14:16:20Z</time>
      </trkpt>
      <trkpt lat="48.02094" lon="-4.32013">
        <ele>66.95</ele>
        <time>2015-02-27T14:16:26Z</time>
      </trkpt>
      <trkpt lat="48.02097" lon="-4.32049">
        <ele>65.03</ele>
        <time>2015-02-27T14:16:41Z</time>
      </trkpt>
      <trkpt lat="48.02094" lon="-4.32077">
        <ele>65.03</ele>
        <time>2015-02-27T14:16:56Z</time>
      </trkpt>
      <trkpt lat="48.02092" lon="-4.32096">
        <ele>65.03</ele>
        <time>2015-02-27T14:17:07Z</time>
      </trkpt>
      <trkpt lat="48.0209" lon="-4.32113">
        <ele>65.03</ele>
        <time>2015-02-27T14:17:15Z</time>
      </trkpt>
      <trkpt lat="48.02085" lon="-4.32143">
        <ele>65.03</ele>
        <time>2015-02-27T14:17:32Z</time>
      </trkpt>
      <trkpt lat="48.0208" lon="-4.3217">
        <ele>65.03</ele>
        <time>2015-02-27T14:17:47Z</time>
      </trkpt>
      <trkpt lat="48.02076" lon="-4.32193">
        <ele>65.03</ele>
        <time>2015-02-27T14:18:02Z</time>
      </trkpt>
      <trkpt lat="48.02072" lon="-4.32221">
        <ele>64.55</ele>
        <time>2015-02-27T14:18:18Z</time>
      </trkpt>
      <trkpt lat="48.02072" lon="-4.32231">
        <ele>65.99</ele>
        <time>2015-02-27T14:18:30Z</time>
      </trkpt>
      <trkpt lat="48.02071" lon="-4.32235">
        <ele>65.99</ele>
        <time>2015-02-27T14:18:56Z</time>
      </trkpt>
      <trkpt lat="48.02072" lon="-4.32231">
        <ele>65.99</ele>
        <time>2015-02-27T14:19:21Z</time>
      </trkpt>
      <trkpt lat="48.02073" lon="-4.32233">
        <ele>65.99</ele>
        <time>2015-02-27T14:19:44Z</time>
      </trkpt>
      <trkpt lat="48.02071" lon="-4.32244">
        <ele>64.55</ele>
        <time>2015-02-27T14:19:58Z</time>
      </trkpt>
      <trkpt lat="48.0207" lon="-4.32251">
        <ele>64.55</ele>
        <time>2015-02-27T14:20:02Z</time>
      </trkpt>
      <trkpt lat="48.02082" lon="-4.32272">
        <ele>61.66</ele>
        <time>2015-02-27T14:20:17Z</time>
      </trkpt>
      <trkpt lat="48.02099" lon="-4.32274">
        <ele>60.22</ele>
        <time>2015-02-27T14:20:35Z</time>
      </trkpt>
      <trkpt lat="48.0211" lon="-4.32274">
        <ele>59.26</ele>
        <time>2015-02-27T14:20:49Z</time>
      </trkpt>
      <trkpt lat="48.0213" lon="-4.32275">
        <ele>57.82</ele>
        <time>2015-02-27T14:21:04Z</time>
      </trkpt>
      <trkpt lat="48.02148" lon="-4.32276">
        <ele>55.41</ele>
        <time>2015-02-27T14:21:19Z</time>
      </trkpt>
      <trkpt lat="48.02158" lon="-4.32273">
        <ele>53.97</ele>
        <time>2015-02-27T14:21:33Z</time>
      </trkpt>
      <trkpt lat="48.02162" lon="-4.32274">
        <ele>53.49</ele>
        <time>2015-02-27T14:21:40Z</time>
      </trkpt>
      <trkpt lat="48.02166" lon="-4.32278">
        <ele>53.49</ele>
        <time>2015-02-27T14:21:44Z</time>
      </trkpt>
      <trkpt lat="48.0217" lon="-4.32307">
        <ele>53.01</ele>
        <time>2015-02-27T14:22:00Z</time>
      </trkpt>
      <trkpt lat="48.02169" lon="-4.32338">
        <ele>53.01</ele>
        <time>2015-02-27T14:22:14Z</time>
      </trkpt>
      <trkpt lat="48.02168" lon="-4.32366">
        <ele>53.01</ele>
        <time>2015-02-27T14:22:28Z</time>
      </trkpt>
      <trkpt lat="48.02168" lon="-4.32399">
        <ele>53.01</ele>
        <time>2015-02-27T14:22:44Z</time>
      </trkpt>
      <trkpt lat="48.02168" lon="-4.32429">
        <ele>54.93</ele>
        <time>2015-02-27T14:23:00Z</time>
      </trkpt>
      <trkpt lat="48.02169" lon="-4.32433">
        <ele>54.93</ele>
        <time>2015-02-27T14:23:03Z</time>
      </trkpt>
      <trkpt lat="48.02172" lon="-4.32442">
        <ele>54.93</ele>
        <time>2015-02-27T14:23:12Z</time>
      </trkpt>
      <trkpt lat="48.02175" lon="-4.32468">
        <ele>53.49</ele>
        <time>2015-02-27T14:23:26Z</time>
      </trkpt>
      <trkpt lat="48.02175" lon="-4.32484">
        <ele>51.57</ele>
        <time>2015-02-27T14:23:39Z</time>
      </trkpt>
      <trkpt lat="48.02177" lon="-4.32509">
        <ele>50.13</ele>
        <time>2015-02-27T14:23:54Z</time>
      </trkpt>
      <trkpt lat="48.02176" lon="-4.3253">
        <ele>50.13</ele>
        <time>2015-02-27T14:24:05Z</time>
      </trkpt>
      <trkpt lat="48.02175" lon="-4.32558">
        <ele>50.13</ele>
        <time>2015-02-27T14:24:21Z</time>
      </trkpt>
      <trkpt lat="48.02175" lon="-4.32587">
        <ele>50.13</ele>
        <time>2015-02-27T14:24:36Z</time>
      </trkpt>
      <trkpt lat="48.02178" lon="-4.32611">
        <ele>51.57</ele>
        <time>2015-02-27T14:24:52Z</time>
      </trkpt>
      <trkpt lat="48.02183" lon="-4.32614">
        <ele>51.57</ele>
        <time>2015-02-27T14:25:17Z</time>
      </trkpt>
      <trkpt lat="48.02184" lon="-4.32614">
        <ele>52.05</ele>
        <time>2015-02-27T14:25:56Z</time>
      </trkpt>
      <trkpt lat="48.0218" lon="-4.32624">
        <ele>52.05</ele>
        <time>2015-02-27T14:26:18Z</time>
      </trkpt>
      <trkpt lat="48.02168" lon="-4.32643">
        <ele>53.01</ele>
        <time>2015-02-27T14:26:32Z</time>
      </trkpt>
      <trkpt lat="48.02154" lon="-4.32664">
        <ele>54.93</ele>
        <time>2015-02-27T14:26:47Z</time>
      </trkpt>
      <trkpt lat="48.02155" lon="-4.32689">
        <ele>55.89</ele>
        <time>2015-02-27T14:26:59Z</time>
      </trkpt>
      <trkpt lat="48.0216" lon="-4.32729">
        <ele>56.37</ele>
        <time>2015-02-27T14:27:17Z</time>
      </trkpt>
      <trkpt lat="48.02167" lon="-4.32757">
        <ele>54.93</ele>
        <time>2015-02-27T14:27:31Z</time>
      </trkpt>
      <trkpt lat="48.02176" lon="-4.32786">
        <ele>53.97</ele>
        <time>2015-02-27T14:27:47Z</time>
      </trkpt>
      <trkpt lat="48.02183" lon="-4.32818">
        <ele>53.49</ele>
        <time>2015-02-27T14:28:03Z</time>
      </trkpt>
      <trkpt lat="48.02189" lon="-4.32839">
        <ele>53.49</ele>
        <time>2015-02-27T14:28:16Z</time>
      </trkpt>
      <trkpt lat="48.0219" lon="-4.3285">
        <ele>53.49</ele>
        <time>2015-02-27T14:28:22Z</time>
      </trkpt>
      <trkpt lat="48.02191" lon="-4.32874">
        <ele>53.01</ele>
        <time>2015-02-27T14:28:37Z</time>
      </trkpt>
      <trkpt lat="48.02191" lon="-4.32909">
        <ele>53.01</ele>
        <time>2015-02-27T14:28:53Z</time>
      </trkpt>
      <trkpt lat="48.02187" lon="-4.32938">
        <ele>53.01</ele>
        <time>2015-02-27T14:29:04Z</time>
      </trkpt>
      <trkpt lat="48.02185" lon="-4.32966">
        <ele>52.53</ele>
        <time>2015-02-27T14:29:18Z</time>
      </trkpt>
      <trkpt lat="48.02183" lon="-4.32973">
        <ele>52.53</ele>
        <time>2015-02-27T14:29:22Z</time>
      </trkpt>
      <trkpt lat="48.02171" lon="-4.33002">
        <ele>52.53</ele>
        <time>2015-02-27T14:29:39Z</time>
      </trkpt>
      <trkpt lat="48.02167" lon="-4.33005">
        <ele>52.53</ele>
        <time>2015-02-27T14:29:42Z</time>
      </trkpt>
      <trkpt lat="48.02153" lon="-4.33014">
        <ele>53.97</ele>
        <time>2015-02-27T14:29:54Z</time>
      </trkpt>
      <trkpt lat="48.02134" lon="-4.33017">
        <ele>54.45</ele>
        <time>2015-02-27T14:30:08Z</time>
      </trkpt>
      <trkpt lat="48.02112" lon="-4.33016">
        <ele>56.37</ele>
        <time>2015-02-27T14:30:25Z</time>
      </trkpt>
      <trkpt lat="48.02094" lon="-4.33019">
        <ele>57.34</ele>
        <time>2015-02-27T14:30:40Z</time>
      </trkpt>
      <trkpt lat="48.02083" lon="-4.33018">
        <ele>57.34</ele>
        <time>2015-02-27T14:30:48Z</time>
      </trkpt>
      <trkpt lat="48.0208" lon="-4.33017">
        <ele>57.34</ele>
        <time>2015-02-27T14:30:51Z</time>
      </trkpt>
      <trkpt lat="48.02065" lon="-4.33014">
        <ele>57.82</ele>
        <time>2015-02-27T14:31:03Z</time>
      </trkpt>
      <trkpt lat="48.02051" lon="-4.33005">
        <ele>58.78</ele>
        <time>2015-02-27T14:31:17Z</time>
      </trkpt>
      <trkpt lat="48.02034" lon="-4.32993">
        <ele>60.22</ele>
        <time>2015-02-27T14:31:34Z</time>
      </trkpt>
      <trkpt lat="48.02026" lon="-4.32985">
        <ele>60.7</ele>
        <time>2015-02-27T14:31:44Z</time>
      </trkpt>
      <trkpt lat="48.02019" lon="-4.3298">
        <ele>60.7</ele>
        <time>2015-02-27T14:31:50Z</time>
      </trkpt>
      <trkpt lat="48.02003" lon="-4.32968">
        <ele>61.18</ele>
        <time>2015-02-27T14:32:03Z</time>
      </trkpt>
      <trkpt lat="48.01982" lon="-4.32953">
        <ele>61.18</ele>
        <time>2015-02-27T14:32:19Z</time>
      </trkpt>
      <trkpt lat="48.01966" lon="-4.32945">
        <ele>61.18</ele>
        <time>2015-02-27T14:32:32Z</time>
      </trkpt>
      <trkpt lat="48.01942" lon="-4.32936">
        <ele>61.18</ele>
        <time>2015-02-27T14:32:49Z</time>
      </trkpt>
      <trkpt lat="48.01925" lon="-4.32933">
        <ele>61.18</ele>
        <time>2015-02-27T14:33:02Z</time>
      </trkpt>
      <trkpt lat="48.01905" lon="-4.32928">
        <ele>61.66</ele>
        <time>2015-02-27T14:33:18Z</time>
      </trkpt>
      <trkpt lat="48.01903" lon="-4.32926">
        <ele>61.66</ele>
        <time>2015-02-27T14:33:20Z</time>
      </trkpt>
      <trkpt lat="48.01875" lon="-4.32925">
        <ele>61.66</ele>
        <time>2015-02-27T14:33:33Z</time>
      </trkpt>
      <trkpt lat="48.01853" lon="-4.32925">
        <ele>62.14</ele>
        <time>2015-02-27T14:33:48Z</time>
      </trkpt>
      <trkpt lat="48.01833" lon="-4.32924">
        <ele>63.1</ele>
        <time>2015-02-27T14:34:02Z</time>
      </trkpt>
      <trkpt lat="48.01815" lon="-4.32927">
        <ele>63.58</ele>
        <time>2015-02-27T14:34:17Z</time>
      </trkpt>
      <trkpt lat="48.01799" lon="-4.32929">
        <ele>63.58</ele>
        <time>2015-02-27T14:34:28Z</time>
      </trkpt>
      <trkpt lat="48.01793" lon="-4.32932">
        <ele>63.58</ele>
        <time>2015-02-27T14:34:34Z</time>
      </trkpt>
      <trkpt lat="48.01774" lon="-4.32943">
        <ele>65.51</ele>
        <time>2015-02-27T14:34:50Z</time>
      </trkpt>
      <trkpt lat="48.01757" lon="-4.32955">
        <ele>65.99</ele>
        <time>2015-02-27T14:35:04Z</time>
      </trkpt>
      <trkpt lat="48.01753" lon="-4.32958">
        <ele>65.99</ele>
        <time>2015-02-27T14:35:08Z</time>
      </trkpt>
      <trkpt lat="48.01746" lon="-4.32962">
        <ele>66.47</ele>
        <time>2015-02-27T14:35:13Z</time>
      </trkpt>
      <trkpt lat="48.01738" lon="-4.3297">
        <ele>66.95</ele>
        <time>2015-02-27T14:35:20Z</time>
      </trkpt>
      <trkpt lat="48.01728" lon="-4.32977">
        <ele>67.43</ele>
        <time>2015-02-27T14:35:29Z</time>
      </trkpt>
      <trkpt lat="48.01725" lon="-4.32977">
        <ele>67.43</ele>
        <time>2015-02-27T14:35:31Z</time>
      </trkpt>
      <trkpt lat="48.0172" lon="-4.32975">
        <ele>68.39</ele>
        <time>2015-02-27T14:35:45Z</time>
      </trkpt>
      <trkpt lat="48.01715" lon="-4.32976">
        <ele>69.35</ele>
        <time>2015-02-27T14:36:08Z</time>
      </trkpt>
      <trkpt lat="48.0172" lon="-4.32977">
        <ele>69.35</ele>
        <time>2015-02-27T14:36:28Z</time>
      </trkpt>
      <trkpt lat="48.01722" lon="-4.32978">
        <ele>69.35</ele>
        <time>2015-02-27T14:36:55Z</time>
      </trkpt>
      <trkpt lat="48.01723" lon="-4.32974">
        <ele>69.35</ele>
        <time>2015-02-27T14:37:31Z</time>
      </trkpt>
      <trkpt lat="48.01724" lon="-4.32971">
        <ele>69.35</ele>
        <time>2015-02-27T14:37:33Z</time>
      </trkpt>
      <trkpt lat="48.01726" lon="-4.32968">
        <ele>69.35</ele>
        <time>2015-02-27T14:37:35Z</time>
      </trkpt>
      <trkpt lat="48.01736" lon="-4.32945">
        <ele>71.27</ele>
        <time>2015-02-27T14:37:51Z</time>
      </trkpt>
      <trkpt lat="48.01742" lon="-4.3292">
        <ele>73.2</ele>
        <time>2015-02-27T14:38:07Z</time>
      </trkpt>
      <trkpt lat="48.01728" lon="-4.32927">
        <ele>75.12</ele>
        <time>2015-02-27T14:38:22Z</time>
      </trkpt>
      <trkpt lat="48.01724" lon="-4.32925">
        <ele>75.6</ele>
        <time>2015-02-27T14:38:27Z</time>
      </trkpt>
      <trkpt lat="48.01707" lon="-4.32922">
        <ele>78</ele>
        <time>2015-02-27T14:38:42Z</time>
      </trkpt>
      <trkpt lat="48.01688" lon="-4.32922">
        <ele>79.93</ele>
        <time>2015-02-27T14:38:56Z</time>
      </trkpt>
      <trkpt lat="48.01671" lon="-4.3292">
        <ele>81.85</ele>
        <time>2015-02-27T14:39:12Z</time>
      </trkpt>
      <trkpt lat="48.01656" lon="-4.32918">
        <ele>83.77</ele>
        <time>2015-02-27T14:39:25Z</time>
      </trkpt>
      <trkpt lat="48.01646" lon="-4.32916">
        <ele>84.73</ele>
        <time>2015-02-27T14:39:36Z</time>
      </trkpt>
      <trkpt lat="48.01634" lon="-4.32898">
        <ele>87.62</ele>
        <time>2015-02-27T14:39:52Z</time>
      </trkpt>
      <trkpt lat="48.01629" lon="-4.32891">
        <ele>87.62</ele>
        <time>2015-02-27T14:39:57Z</time>
      </trkpt>
      <trkpt lat="48.01622" lon="-4.32874">
        <ele>89.06</ele>
        <time>2015-02-27T14:40:08Z</time>
      </trkpt>
      <trkpt lat="48.01614" lon="-4.32851">
        <ele>89.06</ele>
        <time>2015-02-27T14:40:22Z</time>
      </trkpt>
      <trkpt lat="48.01603" lon="-4.32821">
        <ele>90.02</ele>
        <time>2015-02-27T14:40:37Z</time>
      </trkpt>
      <trkpt lat="48.01593" lon="-4.32794">
        <ele>90.5</ele>
        <time>2015-02-27T14:40:53Z</time>
      </trkpt>
      <trkpt lat="48.01588" lon="-4.32772">
        <ele>92.42</ele>
        <time>2015-02-27T14:41:07Z</time>
      </trkpt>
      <trkpt lat="48.01579" lon="-4.32743">
        <ele>92.9</ele>
        <time>2015-02-27T14:41:24Z</time>
      </trkpt>
      <trkpt lat="48.01563" lon="-4.32725">
        <ele>93.87</ele>
        <time>2015-02-27T14:41:39Z</time>
      </trkpt>
      <trkpt lat="48.0155" lon="-4.32717">
        <ele>93.87</ele>
        <time>2015-02-27T14:41:50Z</time>
      </trkpt>
      <trkpt lat="48.01533" lon="-4.32711">
        <ele>94.35</ele>
        <time>2015-02-27T14:42:07Z</time>
      </trkpt>
      <trkpt lat="48.01512" lon="-4.32699">
        <ele>94.35</ele>
        <time>2015-02-27T14:42:22Z</time>
      </trkpt>
      <trkpt lat="48.01493" lon="-4.32695">
        <ele>94.83</ele>
        <time>2015-02-27T14:42:37Z</time>
      </trkpt>
      <trkpt lat="48.01482" lon="-4.32689">
        <ele>94.83</ele>
        <time>2015-02-27T14:42:47Z</time>
      </trkpt>
      <trkpt lat="48.01458" lon="-4.32684">
        <ele>95.31</ele>
        <time>2015-02-27T14:43:04Z</time>
      </trkpt>
      <trkpt lat="48.01452" lon="-4.32684">
        <ele>95.31</ele>
        <time>2015-02-27T14:43:09Z</time>
      </trkpt>
      <trkpt lat="48.01433" lon="-4.32683">
        <ele>95.31</ele>
        <time>2015-02-27T14:43:24Z</time>
      </trkpt>
      <trkpt lat="48.0143" lon="-4.32683">
        <ele>95.31</ele>
        <time>2015-02-27T14:43:26Z</time>
      </trkpt>
      <trkpt lat="48.01406" lon="-4.32684">
        <ele>94.35</ele>
        <time>2015-02-27T14:43:42Z</time>
      </trkpt>
      <trkpt lat="48.01385" lon="-4.32682">
        <ele>92.9</ele>
        <time>2015-02-27T14:43:57Z</time>
      </trkpt>
      <trkpt lat="48.01383" lon="-4.32682">
        <ele>93.39</ele>
        <time>2015-02-27T14:43:59Z</time>
      </trkpt>
      <trkpt lat="48.01373" lon="-4.32674">
        <ele>92.9</ele>
        <time>2015-02-27T14:44:07Z</time>
      </trkpt>
      <trkpt lat="48.0136" lon="-4.32651">
        <ele>91.94</ele>
        <time>2015-02-27T14:44:23Z</time>
      </trkpt>
      <trkpt lat="48.01349" lon="-4.32632">
        <ele>91.94</ele>
        <time>2015-02-27T14:44:35Z</time>
      </trkpt>
      <trkpt lat="48.01345" lon="-4.32621">
        <ele>91.46</ele>
        <time>2015-02-27T14:44:41Z</time>
      </trkpt>
      <trkpt lat="48.01337" lon="-4.32596">
        <ele>90.02</ele>
        <time>2015-02-27T14:44:53Z</time>
      </trkpt>
      <trkpt lat="48.01332" lon="-4.32586">
        <ele>89.54</ele>
        <time>2015-02-27T14:44:58Z</time>
      </trkpt>
      <trkpt lat="48.01323" lon="-4.32564">
        <ele>89.54</ele>
        <time>2015-02-27T14:45:13Z</time>
      </trkpt>
      <trkpt lat="48.01322" lon="-4.32563">
        <ele>89.54</ele>
        <time>2015-02-27T14:45:14Z</time>
      </trkpt>
      <trkpt lat="48.01319" lon="-4.32561">
        <ele>89.54</ele>
        <time>2015-02-27T14:45:16Z</time>
      </trkpt>
      <trkpt lat="48.0132" lon="-4.32525">
        <ele>89.54</ele>
        <time>2015-02-27T14:45:31Z</time>
      </trkpt>
      <trkpt lat="48.01323" lon="-4.325">
        <ele>89.54</ele>
        <time>2015-02-27T14:45:44Z</time>
      </trkpt>
      <trkpt lat="48.0132" lon="-4.32477">
        <ele>91.46</ele>
        <time>2015-02-27T14:45:57Z</time>
      </trkpt>
      <trkpt lat="48.01299" lon="-4.32472">
        <ele>92.42</ele>
        <time>2015-02-27T14:46:15Z</time>
      </trkpt>
      <trkpt lat="48.0128" lon="-4.32469">
        <ele>92.9</ele>
        <time>2015-02-27T14:46:30Z</time>
      </trkpt>
      <trkpt lat="48.01259" lon="-4.32471">
        <ele>93.87</ele>
        <time>2015-02-27T14:46:47Z</time>
      </trkpt>
      <trkpt lat="48.0123" lon="-4.32477">
        <ele>93.87</ele>
        <time>2015-02-27T14:47:05Z</time>
      </trkpt>
      <trkpt lat="48.0121" lon="-4.32485">
        <ele>94.35</ele>
        <time>2015-02-27T14:47:21Z</time>
      </trkpt>
      <trkpt lat="48.01195" lon="-4.32488">
        <ele>94.83</ele>
        <time>2015-02-27T14:47:37Z</time>
      </trkpt>
      <trkpt lat="48.0119" lon="-4.32489">
        <ele>95.31</ele>
        <time>2015-02-27T14:47:56Z</time>
      </trkpt>
      <trkpt lat="48.01176" lon="-4.3249">
        <ele>95.79</ele>
        <time>2015-02-27T14:48:09Z</time>
      </trkpt>
      <trkpt lat="48.01169" lon="-4.32491">
        <ele>96.27</ele>
        <time>2015-02-27T14:48:16Z</time>
      </trkpt>
      <trkpt lat="48.01158" lon="-4.32489">
        <ele>96.75</ele>
        <time>2015-02-27T14:48:25Z</time>
      </trkpt>
      <trkpt lat="48.01142" lon="-4.325">
        <ele>97.23</ele>
        <time>2015-02-27T14:48:41Z</time>
      </trkpt>
      <trkpt lat="48.01135" lon="-4.32504">
        <ele>97.23</ele>
        <time>2015-02-27T14:48:54Z</time>
      </trkpt>
      <trkpt lat="48.01126" lon="-4.32507">
        <ele>97.71</ele>
        <time>2015-02-27T14:49:03Z</time>
      </trkpt>
      <trkpt lat="48.01114" lon="-4.32508">
        <ele>98.67</ele>
        <time>2015-02-27T14:49:17Z</time>
      </trkpt>
      <trkpt lat="48.01093" lon="-4.32509">
        <ele>100.6</ele>
        <time>2015-02-27T14:49:34Z</time>
      </trkpt>
      <trkpt lat="48.01076" lon="-4.32517">
        <ele>101.08</ele>
        <time>2015-02-27T14:49:47Z</time>
      </trkpt>
      <trkpt lat="48.01053" lon="-4.32527">
        <ele>101.56</ele>
        <time>2015-02-27T14:50:03Z</time>
      </trkpt>
      <trkpt lat="48.01038" lon="-4.32535">
        <ele>101.56</ele>
        <time>2015-02-27T14:50:17Z</time>
      </trkpt>
      <trkpt lat="48.01024" lon="-4.32547">
        <ele>99.15</ele>
        <time>2015-02-27T14:50:31Z</time>
      </trkpt>
      <trkpt lat="48.01008" lon="-4.32552">
        <ele>96.75</ele>
        <time>2015-02-27T14:50:44Z</time>
      </trkpt>
      <trkpt lat="48.00998" lon="-4.32561">
        <ele>94.83</ele>
        <time>2015-02-27T14:50:59Z</time>
      </trkpt>
      <trkpt lat="48.00996" lon="-4.32569">
        <ele>94.35</ele>
        <time>2015-02-27T14:51:12Z</time>
      </trkpt>
      <trkpt lat="48.00996" lon="-4.32565">
        <ele>94.35</ele>
        <time>2015-02-27T14:51:25Z</time>
      </trkpt>
      <trkpt lat="48.00996" lon="-4.32561">
        <ele>94.35</ele>
        <time>2015-02-27T14:51:41Z</time>
      </trkpt>
      <trkpt lat="48.00995" lon="-4.32568">
        <ele>94.35</ele>
        <time>2015-02-27T14:52:08Z</time>
      </trkpt>
      <trkpt lat="48.00997" lon="-4.3256">
        <ele>94.35</ele>
        <time>2015-02-27T14:52:21Z</time>
      </trkpt>
      <trkpt lat="48.00996" lon="-4.32556">
        <ele>95.79</ele>
        <time>2015-02-27T14:52:27Z</time>
      </trkpt>
      <trkpt lat="48.00997" lon="-4.32558">
        <ele>95.79</ele>
        <time>2015-02-27T14:52:49Z</time>
      </trkpt>
      <trkpt lat="48.00999" lon="-4.32562">
        <ele>95.79</ele>
        <time>2015-02-27T14:53:08Z</time>
      </trkpt>
      <trkpt lat="48.01004" lon="-4.32551">
        <ele>97.71</ele>
        <time>2015-02-27T14:53:21Z</time>
      </trkpt>
      <trkpt lat="48.01005" lon="-4.32549">
        <ele>98.19</ele>
        <time>2015-02-27T14:53:47Z</time>
      </trkpt>
      <trkpt lat="48.01001" lon="-4.32537">
        <ele>98.19</ele>
        <time>2015-02-27T14:53:59Z</time>
      </trkpt>
      <trkpt lat="48.00997" lon="-4.3253">
        <ele>98.19</ele>
        <time>2015-02-27T14:54:04Z</time>
      </trkpt>
      <trkpt lat="48.00987" lon="-4.32515">
        <ele>98.67</ele>
        <time>2015-02-27T14:54:19Z</time>
      </trkpt>
      <trkpt lat="48.00977" lon="-4.32504">
        <ele>98.67</ele>
        <time>2015-02-27T14:54:33Z</time>
      </trkpt>
      <trkpt lat="48.00975" lon="-4.325">
        <ele>98.67</ele>
        <time>2015-02-27T14:54:37Z</time>
      </trkpt>
      <trkpt lat="48.00971" lon="-4.32495">
        <ele>98.67</ele>
        <time>2015-02-27T14:54:41Z</time>
      </trkpt>
      <trkpt lat="48.00965" lon="-4.32485">
        <ele>99.15</ele>
        <time>2015-02-27T14:54:50Z</time>
      </trkpt>
      <trkpt lat="48.00951" lon="-4.32465">
        <ele>99.63</ele>
        <time>2015-02-27T14:55:05Z</time>
      </trkpt>
      <trkpt lat="48.00937" lon="-4.32447">
        <ele>99.63</ele>
        <time>2015-02-27T14:55:20Z</time>
      </trkpt>
      <trkpt lat="48.00935" lon="-4.32446">
        <ele>99.63</ele>
        <time>2015-02-27T14:55:22Z</time>
      </trkpt>
      <trkpt lat="48.00931" lon="-4.32442">
        <ele>100.11</ele>
        <time>2015-02-27T14:55:26Z</time>
      </trkpt>
      <trkpt lat="48.00922" lon="-4.32428">
        <ele>100.11</ele>
        <time>2015-02-27T14:55:41Z</time>
      </trkpt>
      <trkpt lat="48.00912" lon="-4.32418">
        <ele>100.11</ele>
        <time>2015-02-27T14:55:57Z</time>
      </trkpt>
      <trkpt lat="48.00897" lon="-4.32404">
        <ele>100.6</ele>
        <time>2015-02-27T14:56:14Z</time>
      </trkpt>
      <trkpt lat="48.0089" lon="-4.32397">
        <ele>101.08</ele>
        <time>2015-02-27T14:56:29Z</time>
      </trkpt>
      <trkpt lat="48.00879" lon="-4.32385">
        <ele>101.08</ele>
        <time>2015-02-27T14:56:43Z</time>
      </trkpt>
      <trkpt lat="48.00874" lon="-4.32377">
        <ele>101.56</ele>
        <time>2015-02-27T14:56:49Z</time>
      </trkpt>
      <trkpt lat="48.00861" lon="-4.32361">
        <ele>101.56</ele>
        <time>2015-02-27T14:57:06Z</time>
      </trkpt>
      <trkpt lat="48.00848" lon="-4.32347">
        <ele>102.04</ele>
        <time>2015-02-27T14:57:22Z</time>
      </trkpt>
      <trkpt lat="48.00835" lon="-4.32328">
        <ele>102.04</ele>
        <time>2015-02-27T14:57:36Z</time>
      </trkpt>
      <trkpt lat="48.00819" lon="-4.32306">
        <ele>102.04</ele>
        <time>2015-02-27T14:57:56Z</time>
      </trkpt>
      <trkpt lat="48.00816" lon="-4.32302">
        <ele>102.04</ele>
        <time>2015-02-27T14:58:00Z</time>
      </trkpt>
      <trkpt lat="48.00808" lon="-4.32284">
        <ele>103</ele>
        <time>2015-02-27T14:58:17Z</time>
      </trkpt>
      <trkpt lat="48.00802" lon="-4.32272">
        <ele>103</ele>
        <time>2015-02-27T14:58:31Z</time>
      </trkpt>
      <trkpt lat="48.00795" lon="-4.3226">
        <ele>103.48</ele>
        <time>2015-02-27T14:58:47Z</time>
      </trkpt>
      <trkpt lat="48.00786" lon="-4.3224">
        <ele>103.48</ele>
        <time>2015-02-27T14:59:01Z</time>
      </trkpt>
      <trkpt lat="48.00775" lon="-4.32217">
        <ele>103.96</ele>
        <time>2015-02-27T14:59:17Z</time>
      </trkpt>
      <trkpt lat="48.00764" lon="-4.32191">
        <ele>104.44</ele>
        <time>2015-02-27T14:59:34Z</time>
      </trkpt>
      <trkpt lat="48.00753" lon="-4.32171">
        <ele>104.44</ele>
        <time>2015-02-27T14:59:49Z</time>
      </trkpt>
      <trkpt lat="48.00743" lon="-4.32163">
        <ele>104.44</ele>
        <time>2015-02-27T15:00:01Z</time>
      </trkpt>
      <trkpt lat="48.00739" lon="-4.32165">
        <ele>103.48</ele>
        <time>2015-02-27T15:00:06Z</time>
      </trkpt>
      <trkpt lat="48.00737" lon="-4.32168">
        <ele>103.48</ele>
        <time>2015-02-27T15:00:09Z</time>
      </trkpt>
      <trkpt lat="48.00734" lon="-4.32173">
        <ele>103.48</ele>
        <time>2015-02-27T15:00:14Z</time>
      </trkpt>
      <trkpt lat="48.00727" lon="-4.32189">
        <ele>103</ele>
        <time>2015-02-27T15:00:27Z</time>
      </trkpt>
      <trkpt lat="48.00724" lon="-4.32194">
        <ele>103</ele>
        <time>2015-02-27T15:00:32Z</time>
      </trkpt>
      <trkpt lat="48.00712" lon="-4.32205">
        <ele>103.96</ele>
        <time>2015-02-27T15:00:44Z</time>
      </trkpt>
      <trkpt lat="48.00705" lon="-4.32215">
        <ele>104.92</ele>
        <time>2015-02-27T15:00:52Z</time>
      </trkpt>
      <trkpt lat="48.00698" lon="-4.32224">
        <ele>105.88</ele>
        <time>2015-02-27T15:01:00Z</time>
      </trkpt>
      <trkpt lat="48.00696" lon="-4.32227">
        <ele>106.36</ele>
        <time>2015-02-27T15:01:02Z</time>
      </trkpt>
      <trkpt lat="48.00685" lon="-4.3225">
        <ele>106.36</ele>
        <time>2015-02-27T15:01:19Z</time>
      </trkpt>
      <trkpt lat="48.00674" lon="-4.32265">
        <ele>106.36</ele>
        <time>2015-02-27T15:01:35Z</time>
      </trkpt>
      <trkpt lat="48.00673" lon="-4.32269">
        <ele>106.36</ele>
        <time>2015-02-27T15:01:52Z</time>
      </trkpt>
      <trkpt lat="48.00672" lon="-4.3227">
        <ele>106.36</ele>
        <time>2015-02-27T15:02:19Z</time>
      </trkpt>
      <trkpt lat="48.00671" lon="-4.32271">
        <ele>107.32</ele>
        <time>2015-02-27T15:02:46Z</time>
      </trkpt>
      <trkpt lat="48.00671" lon="-4.32272">
        <ele>107.32</ele>
        <time>2015-02-27T15:02:49Z</time>
      </trkpt>
      <trkpt lat="48.00678" lon="-4.32302">
        <ele>107.32</ele>
        <time>2015-02-27T15:03:05Z</time>
      </trkpt>
      <trkpt lat="48.00679" lon="-4.3234">
        <ele>107.32</ele>
        <time>2015-02-27T15:03:23Z</time>
      </trkpt>
      <trkpt lat="48.00681" lon="-4.32372">
        <ele>107.32</ele>
        <time>2015-02-27T15:03:40Z</time>
      </trkpt>
      <trkpt lat="48.00683" lon="-4.32402">
        <ele>107.32</ele>
        <time>2015-02-27T15:03:55Z</time>
      </trkpt>
      <trkpt lat="48.00683" lon="-4.32434">
        <ele>108.29</ele>
        <time>2015-02-27T15:04:12Z</time>
      </trkpt>
      <trkpt lat="48.00681" lon="-4.32462">
        <ele>109.25</ele>
        <time>2015-02-27T15:04:27Z</time>
      </trkpt>
      <trkpt lat="48.00676" lon="-4.32485">
        <ele>110.69</ele>
        <time>2015-02-27T15:04:40Z</time>
      </trkpt>
      <trkpt lat="48.00663" lon="-4.32513">
        <ele>111.65</ele>
        <time>2015-02-27T15:04:57Z</time>
      </trkpt>
      <trkpt lat="48.00658" lon="-4.32522">
        <ele>111.65</ele>
        <time>2015-02-27T15:05:03Z</time>
      </trkpt>
      <trkpt lat="48.00655" lon="-4.32528">
        <ele>112.13</ele>
        <time>2015-02-27T15:05:07Z</time>
      </trkpt>
      <trkpt lat="48.00644" lon="-4.32554">
        <ele>113.09</ele>
        <time>2015-02-27T15:05:22Z</time>
      </trkpt>
      <trkpt lat="48.00637" lon="-4.32565">
        <ele>113.09</ele>
        <time>2015-02-27T15:05:30Z</time>
      </trkpt>
      <trkpt lat="48.0063" lon="-4.32565">
        <ele>113.09</ele>
        <time>2015-02-27T15:05:36Z</time>
      </trkpt>
      <trkpt lat="48.00611" lon="-4.32551">
        <ele>113.09</ele>
        <time>2015-02-27T15:05:54Z</time>
      </trkpt>
      <trkpt lat="48.00594" lon="-4.3254">
        <ele>111.65</ele>
        <time>2015-02-27T15:06:08Z</time>
      </trkpt>
      <trkpt lat="48.00574" lon="-4.32522">
        <ele>111.17</ele>
        <time>2015-02-27T15:06:25Z</time>
      </trkpt>
      <trkpt lat="48.00557" lon="-4.32508">
        <ele>110.69</ele>
        <time>2015-02-27T15:06:40Z</time>
      </trkpt>
      <trkpt lat="48.00555" lon="-4.32506">
        <ele>110.69</ele>
        <time>2015-02-27T15:06:42Z</time>
      </trkpt>
      <trkpt lat="48.00538" lon="-4.32491">
        <ele>110.21</ele>
        <time>2015-02-27T15:06:56Z</time>
      </trkpt>
      <trkpt lat="48.00528" lon="-4.32483">
        <ele>109.73</ele>
        <time>2015-02-27T15:07:05Z</time>
      </trkpt>
      <trkpt lat="48.00514" lon="-4.32468">
        <ele>109.73</ele>
        <time>2015-02-27T15:07:19Z</time>
      </trkpt>
      <trkpt lat="48.00497" lon="-4.32452">
        <ele>109.73</ele>
        <time>2015-02-27T15:07:34Z</time>
      </trkpt>
      <trkpt lat="48.00482" lon="-4.32443">
        <ele>109.73</ele>
        <time>2015-02-27T15:07:50Z</time>
      </trkpt>
      <trkpt lat="48.00475" lon="-4.32439">
        <ele>109.73</ele>
        <time>2015-02-27T15:07:57Z</time>
      </trkpt>
      <trkpt lat="48.00458" lon="-4.32424">
        <ele>109.73</ele>
        <time>2015-02-27T15:08:12Z</time>
      </trkpt>
      <trkpt lat="48.00451" lon="-4.32421">
        <ele>109.73</ele>
        <time>2015-02-27T15:08:17Z</time>
      </trkpt>
      <trkpt lat="48.00434" lon="-4.32405">
        <ele>111.17</ele>
        <time>2015-02-27T15:08:34Z</time>
      </trkpt>
      <trkpt lat="48.00419" lon="-4.32388">
        <ele>111.65</ele>
        <time>2015-02-27T15:08:49Z</time>
      </trkpt>
      <trkpt lat="48.00407" lon="-4.32376">
        <ele>112.13</ele>
        <time>2015-02-27T15:09:03Z</time>
      </trkpt>
      <trkpt lat="48.00389" lon="-4.32363">
        <ele>112.13</ele>
        <time>2015-02-27T15:09:21Z</time>
      </trkpt>
      <trkpt lat="48.0037" lon="-4.3235">
        <ele>112.61</ele>
        <time>2015-02-27T15:09:35Z</time>
      </trkpt>
      <trkpt lat="48.00362" lon="-4.32341">
        <ele>112.61</ele>
        <time>2015-02-27T15:09:42Z</time>
      </trkpt>
      <trkpt lat="48.00359" lon="-4.32337">
        <ele>112.61</ele>
        <time>2015-02-27T15:09:47Z</time>
      </trkpt>
      <trkpt lat="48.00343" lon="-4.32324">
        <ele>112.61</ele>
        <time>2015-02-27T15:10:02Z</time>
      </trkpt>
      <trkpt lat="48.00328" lon="-4.32311">
        <ele>112.13</ele>
        <time>2015-02-27T15:10:16Z</time>
      </trkpt>
      <trkpt lat="48.00321" lon="-4.32304">
        <ele>112.61</ele>
        <time>2015-02-27T15:10:23Z</time>
      </trkpt>
      <trkpt lat="48.00319" lon="-4.32301">
        <ele>111.17</ele>
        <time>2015-02-27T15:10:25Z</time>
      </trkpt>
      <trkpt lat="48.00316" lon="-4.32299">
        <ele>111.17</ele>
        <time>2015-02-27T15:10:27Z</time>
      </trkpt>
      <trkpt lat="48.00306" lon="-4.32292">
        <ele>110.69</ele>
        <time>2015-02-27T15:10:35Z</time>
      </trkpt>
      <trkpt lat="48.00301" lon="-4.32288">
        <ele>110.69</ele>
        <time>2015-02-27T15:10:39Z</time>
      </trkpt>
      <trkpt lat="48.00288" lon="-4.32278">
        <ele>110.21</ele>
        <time>2015-02-27T15:10:52Z</time>
      </trkpt>
      <trkpt lat="48.0027" lon="-4.32263">
        <ele>109.73</ele>
        <time>2015-02-27T15:11:09Z</time>
      </trkpt>
      <trkpt lat="48.0027" lon="-4.32262">
        <ele>109.73</ele>
        <time>2015-02-27T15:11:10Z</time>
      </trkpt>
      <trkpt lat="48.00252" lon="-4.32251">
        <ele>109.25</ele>
        <time>2015-02-27T15:11:26Z</time>
      </trkpt>
      <trkpt lat="48.0025" lon="-4.3225">
        <ele>109.25</ele>
        <time>2015-02-27T15:11:27Z</time>
      </trkpt>
      <trkpt lat="48.0023" lon="-4.32239">
        <ele>108.77</ele>
        <time>2015-02-27T15:11:42Z</time>
      </trkpt>
      <trkpt lat="48.00215" lon="-4.3223">
        <ele>108.77</ele>
        <time>2015-02-27T15:11:55Z</time>
      </trkpt>
      <trkpt lat="48.00193" lon="-4.32223">
        <ele>108.29</ele>
        <time>2015-02-27T15:12:12Z</time>
      </trkpt>
      <trkpt lat="48.00188" lon="-4.32228">
        <ele>108.29</ele>
        <time>2015-02-27T15:12:17Z</time>
      </trkpt>
      <trkpt lat="48.00184" lon="-4.32246">
        <ele>107.81</ele>
        <time>2015-02-27T15:12:33Z</time>
      </trkpt>
      <trkpt lat="48.00182" lon="-4.32262">
        <ele>107.81</ele>
        <time>2015-02-27T15:12:49Z</time>
      </trkpt>
      <trkpt lat="48.00182" lon="-4.32292">
        <ele>107.81</ele>
        <time>2015-02-27T15:13:04Z</time>
      </trkpt>
      <trkpt lat="48.00182" lon="-4.32297">
        <ele>107.81</ele>
        <time>2015-02-27T15:13:06Z</time>
      </trkpt>
      <trkpt lat="48.00183" lon="-4.32323">
        <ele>109.25</ele>
        <time>2015-02-27T15:13:21Z</time>
      </trkpt>
      <trkpt lat="48.00183" lon="-4.32346">
        <ele>110.21</ele>
        <time>2015-02-27T15:13:35Z</time>
      </trkpt>
      <trkpt lat="48.00186" lon="-4.32375">
        <ele>109.25</ele>
        <time>2015-02-27T15:13:51Z</time>
      </trkpt>
      <trkpt lat="48.00187" lon="-4.32394">
        <ele>109.25</ele>
        <time>2015-02-27T15:14:03Z</time>
      </trkpt>
      <trkpt lat="48.00187" lon="-4.32396">
        <ele>109.25</ele>
        <time>2015-02-27T15:14:04Z</time>
      </trkpt>
      <trkpt lat="48.00189" lon="-4.324">
        <ele>110.69</ele>
        <time>2015-02-27T15:14:07Z</time>
      </trkpt>
      <trkpt lat="48.00194" lon="-4.32428">
        <ele>110.69</ele>
        <time>2015-02-27T15:14:21Z</time>
      </trkpt>
      <trkpt lat="48.00199" lon="-4.3245">
        <ele>111.17</ele>
        <time>2015-02-27T15:14:34Z</time>
      </trkpt>
      <trkpt lat="48.00201" lon="-4.32468">
        <ele>111.17</ele>
        <time>2015-02-27T15:14:46Z</time>
      </trkpt>
      <trkpt lat="48.00203" lon="-4.32475">
        <ele>111.65</ele>
        <time>2015-02-27T15:14:51Z</time>
      </trkpt>
      <trkpt lat="48.00207" lon="-4.32498">
        <ele>112.61</ele>
        <time>2015-02-27T15:15:06Z</time>
      </trkpt>
      <trkpt lat="48.00209" lon="-4.32508">
        <ele>112.13</ele>
        <time>2015-02-27T15:15:12Z</time>
      </trkpt>
      <trkpt lat="48.00212" lon="-4.32523">
        <ele>112.13</ele>
        <time>2015-02-27T15:15:20Z</time>
      </trkpt>
      <trkpt lat="48.00216" lon="-4.32537">
        <ele>112.61</ele>
        <time>2015-02-27T15:15:28Z</time>
      </trkpt>
      <trkpt lat="48.00217" lon="-4.32544">
        <ele>113.09</ele>
        <time>2015-02-27T15:15:32Z</time>
      </trkpt>
      <trkpt lat="48.00218" lon="-4.32556">
        <ele>113.09</ele>
        <time>2015-02-27T15:15:39Z</time>
      </trkpt>
      <trkpt lat="48.0022" lon="-4.32581">
        <ele>113.09</ele>
        <time>2015-02-27T15:15:52Z</time>
      </trkpt>
      <trkpt lat="48.0022" lon="-4.32608">
        <ele>113.57</ele>
        <time>2015-02-27T15:16:05Z</time>
      </trkpt>
      <trkpt lat="48.00222" lon="-4.3264">
        <ele>113.57</ele>
        <time>2015-02-27T15:16:22Z</time>
      </trkpt>
      <trkpt lat="48.00221" lon="-4.32668">
        <ele>114.53</ele>
        <time>2015-02-27T15:16:38Z</time>
      </trkpt>
      <trkpt lat="48.00221" lon="-4.3269">
        <ele>115.01</ele>
        <time>2015-02-27T15:16:51Z</time>
      </trkpt>
      <trkpt lat="48.0022" lon="-4.3271">
        <ele>115.5</ele>
        <time>2015-02-27T15:17:07Z</time>
      </trkpt>
      <trkpt lat="48.0022" lon="-4.32727">
        <ele>116.46</ele>
        <time>2015-02-27T15:17:21Z</time>
      </trkpt>
      <trkpt lat="48.00219" lon="-4.32751">
        <ele>117.9</ele>
        <time>2015-02-27T15:17:34Z</time>
      </trkpt>
      <trkpt lat="48.00218" lon="-4.32759">
        <ele>118.38</ele>
        <time>2015-02-27T15:17:49Z</time>
      </trkpt>
      <trkpt lat="48.00217" lon="-4.32788">
        <ele>119.34</ele>
        <time>2015-02-27T15:18:06Z</time>
      </trkpt>
      <trkpt lat="48.00215" lon="-4.32822">
        <ele>120.78</ele>
        <time>2015-02-27T15:18:25Z</time>
      </trkpt>
      <trkpt lat="48.00215" lon="-4.32831">
        <ele>121.26</ele>
        <time>2015-02-27T15:18:37Z</time>
      </trkpt>
      <trkpt lat="48.00215" lon="-4.32832">
        <ele>121.74</ele>
        <time>2015-02-27T15:18:44Z</time>
      </trkpt>
      <trkpt lat="48.00214" lon="-4.32848">
        <ele>122.22</ele>
        <time>2015-02-27T15:18:58Z</time>
      </trkpt>
      <trkpt lat="48.00213" lon="-4.32851">
        <ele>122.22</ele>
        <time>2015-02-27T15:19:00Z</time>
      </trkpt>
      <trkpt lat="48.0021" lon="-4.32882">
        <ele>122.71</ele>
        <time>2015-02-27T15:19:17Z</time>
      </trkpt>
      <trkpt lat="48.0021" lon="-4.32911">
        <ele>123.19</ele>
        <time>2015-02-27T15:19:32Z</time>
      </trkpt>
      <trkpt lat="48.0021" lon="-4.32917">
        <ele>123.19</ele>
        <time>2015-02-27T15:19:35Z</time>
      </trkpt>
      <trkpt lat="48.0021" lon="-4.32945">
        <ele>124.15</ele>
        <time>2015-02-27T15:19:50Z</time>
      </trkpt>
      <trkpt lat="48.00208" lon="-4.32974">
        <ele>124.63</ele>
        <time>2015-02-27T15:20:05Z</time>
      </trkpt>
      <trkpt lat="48.00205" lon="-4.33003">
        <ele>124.15</ele>
        <time>2015-02-27T15:20:21Z</time>
      </trkpt>
      <trkpt lat="48.00199" lon="-4.33033">
        <ele>124.15</ele>
        <time>2015-02-27T15:20:36Z</time>
      </trkpt>
      <trkpt lat="48.00185" lon="-4.33064">
        <ele>124.15</ele>
        <time>2015-02-27T15:20:54Z</time>
      </trkpt>
      <trkpt lat="48.00168" lon="-4.33083">
        <ele>124.15</ele>
        <time>2015-02-27T15:21:10Z</time>
      </trkpt>
      <trkpt lat="48.00166" lon="-4.33085">
        <ele>124.15</ele>
        <time>2015-02-27T15:21:12Z</time>
      </trkpt>
      <trkpt lat="48.00161" lon="-4.33092">
        <ele>123.19</ele>
        <time>2015-02-27T15:21:18Z</time>
      </trkpt>
      <trkpt lat="48.0016" lon="-4.33094">
        <ele>123.19</ele>
        <time>2015-02-27T15:21:20Z</time>
      </trkpt>
      <trkpt lat="48.00145" lon="-4.33114">
        <ele>122.71</ele>
        <time>2015-02-27T15:21:36Z</time>
      </trkpt>
      <trkpt lat="48.00133" lon="-4.33125">
        <ele>122.71</ele>
        <time>2015-02-27T15:21:51Z</time>
      </trkpt>
      <trkpt lat="48.00112" lon="-4.3315">
        <ele>122.71</ele>
        <time>2015-02-27T15:22:13Z</time>
      </trkpt>
      <trkpt lat="48.00095" lon="-4.33174">
        <ele>122.71</ele>
        <time>2015-02-27T15:22:32Z</time>
      </trkpt>
      <trkpt lat="48.00085" lon="-4.33201">
        <ele>122.22</ele>
        <time>2015-02-27T15:22:49Z</time>
      </trkpt>
      <trkpt lat="48.00078" lon="-4.33242">
        <ele>121.74</ele>
        <time>2015-02-27T15:23:08Z</time>
      </trkpt>
      <trkpt lat="48.00071" lon="-4.33274">
        <ele>121.74</ele>
        <time>2015-02-27T15:23:23Z</time>
      </trkpt>
      <trkpt lat="48.00068" lon="-4.33285">
        <ele>121.26</ele>
        <time>2015-02-27T15:23:29Z</time>
      </trkpt>
      <trkpt lat="48.00059" lon="-4.33321">
        <ele>120.78</ele>
        <time>2015-02-27T15:23:48Z</time>
      </trkpt>
      <trkpt lat="48.00053" lon="-4.3335">
        <ele>120.3</ele>
        <time>2015-02-27T15:24:06Z</time>
      </trkpt>
      <trkpt lat="48.00052" lon="-4.33366">
        <ele>119.34</ele>
        <time>2015-02-27T15:24:15Z</time>
      </trkpt>
      <trkpt lat="48.0006" lon="-4.33375">
        <ele>119.34</ele>
        <time>2015-02-27T15:24:23Z</time>
      </trkpt>
      <trkpt lat="48.00078" lon="-4.33389">
        <ele>119.34</ele>
        <time>2015-02-27T15:24:41Z</time>
      </trkpt>
      <trkpt lat="48.00097" lon="-4.33403">
        <ele>119.34</ele>
        <time>2015-02-27T15:24:56Z</time>
      </trkpt>
      <trkpt lat="48.00102" lon="-4.33407">
        <ele>119.34</ele>
        <time>2015-02-27T15:24:59Z</time>
      </trkpt>
      <trkpt lat="48.0012" lon="-4.33438">
        <ele>119.34</ele>
        <time>2015-02-27T15:25:18Z</time>
      </trkpt>
      <trkpt lat="48.00131" lon="-4.33468">
        <ele>119.34</ele>
        <time>2015-02-27T15:25:35Z</time>
      </trkpt>
      <trkpt lat="48.00134" lon="-4.33497">
        <ele>119.34</ele>
        <time>2015-02-27T15:25:52Z</time>
      </trkpt>
      <trkpt lat="48.00136" lon="-4.33513">
        <ele>119.34</ele>
        <time>2015-02-27T15:26:07Z</time>
      </trkpt>
      <trkpt lat="48.00135" lon="-4.33514">
        <ele>120.78</ele>
        <time>2015-02-27T15:26:22Z</time>
      </trkpt>
      <trkpt lat="48.00134" lon="-4.33513">
        <ele>120.78</ele>
        <time>2015-02-27T15:26:40Z</time>
      </trkpt>
      <trkpt lat="48.00131" lon="-4.33509">
        <ele>120.78</ele>
        <time>2015-02-27T15:27:05Z</time>
      </trkpt>
      <trkpt lat="48.00133" lon="-4.33513">
        <ele>120.78</ele>
        <time>2015-02-27T15:27:30Z</time>
      </trkpt>
      <trkpt lat="48.00135" lon="-4.33512">
        <ele>120.78</ele>
        <time>2015-02-27T15:27:53Z</time>
      </trkpt>
      <trkpt lat="48.00137" lon="-4.33514">
        <ele>120.78</ele>
        <time>2015-02-27T15:28:11Z</time>
      </trkpt>
      <trkpt lat="48.00136" lon="-4.33512">
        <ele>120.78</ele>
        <time>2015-02-27T15:28:24Z</time>
      </trkpt>
      <trkpt lat="48.00135" lon="-4.33513">
        <ele>120.3</ele>
        <time>2015-02-27T15:28:34Z</time>
      </trkpt>
      <trkpt lat="48.00134" lon="-4.33513">
        <ele>120.3</ele>
        <time>2015-02-27T15:28:48Z</time>
      </trkpt>
      <trkpt lat="48.00136" lon="-4.33512">
        <ele>120.3</ele>
        <time>2015-02-27T15:28:59Z</time>
      </trkpt>
    </trkseg>
  </trk>
</gpx>